<?xml version="1.0" encoding="UTF-8" standalone="no" ?>
<gpx xmlns="http://www.topografix.com/GPX/1/1" xmlns:xsi="http://www.w3.org/2001/XMLSchema-instance" xsi:schemaLocation="http://www.topografix.com/GPX/1/1 http://www.topografix.com/GPX/1/1/gpx.xsd" version="1.1" creator="VisuGPX - https://www.visugpx.com">
  <metadata>
    <name>54-Fraispertuis</name>
    <desc><![CDATA[Rando sous le soleil pour une boucle de 19km dans les bois autours de Housseras en passant par la maison forestière de Gondremer, la roche de l'ours, les roches de Chaudrupt, puis la roche des fées en longeant le parc d'attraction et retour vers Housseras.]]></desc>
  </metadata>
  <trk>
    <name><![CDATA[54-Fraispertuits]]></name>
    <trkseg>
      <trkpt lat="48.31027" lon="6.71299">
        <ele>354.86</ele>
        <time>2018-03-29T08:31:19Z</time>
      </trkpt>
      <trkpt lat="48.31027" lon="6.71298">
        <ele>354.86</ele>
        <time>2018-03-29T08:31:49Z</time>
      </trkpt>
      <trkpt lat="48.31027" lon="6.71297">
        <ele>353.9</ele>
        <time>2018-03-29T08:31:51Z</time>
      </trkpt>
      <trkpt lat="48.31024" lon="6.71299">
        <ele>354.86</ele>
        <time>2018-03-29T08:32:15Z</time>
      </trkpt>
      <trkpt lat="48.31024" lon="6.71298">
        <ele>353.9</ele>
        <time>2018-03-29T08:32:28Z</time>
      </trkpt>
      <trkpt lat="48.31026" lon="6.71292">
        <ele>353.9</ele>
        <time>2018-03-29T08:32:46Z</time>
      </trkpt>
      <trkpt lat="48.31031" lon="6.7128">
        <ele>353.9</ele>
        <time>2018-03-29T08:32:57Z</time>
      </trkpt>
      <trkpt lat="48.31035" lon="6.71277">
        <ele>353.9</ele>
        <time>2018-03-29T08:33:01Z</time>
      </trkpt>
      <trkpt lat="48.31051" lon="6.71282">
        <ele>353.9</ele>
        <time>2018-03-29T08:33:15Z</time>
      </trkpt>
      <trkpt lat="48.3106" lon="6.71292">
        <ele>355.34</ele>
        <time>2018-03-29T08:33:23Z</time>
      </trkpt>
      <trkpt lat="48.31062" lon="6.71321">
        <ele>355.83</ele>
        <time>2018-03-29T08:33:40Z</time>
      </trkpt>
      <trkpt lat="48.31061" lon="6.71348">
        <ele>355.83</ele>
        <time>2018-03-29T08:33:56Z</time>
      </trkpt>
      <trkpt lat="48.31054" lon="6.71381">
        <ele>355.83</ele>
        <time>2018-03-29T08:34:14Z</time>
      </trkpt>
      <trkpt lat="48.31053" lon="6.71408">
        <ele>355.83</ele>
        <time>2018-03-29T08:34:27Z</time>
      </trkpt>
      <trkpt lat="48.3105" lon="6.71417">
        <ele>356.31</ele>
        <time>2018-03-29T08:34:47Z</time>
      </trkpt>
      <trkpt lat="48.3105" lon="6.71425">
        <ele>356.31</ele>
        <time>2018-03-29T08:34:59Z</time>
      </trkpt>
      <trkpt lat="48.31042" lon="6.71431">
        <ele>356.31</ele>
        <time>2018-03-29T08:35:07Z</time>
      </trkpt>
      <trkpt lat="48.31028" lon="6.71448">
        <ele>355.83</ele>
        <time>2018-03-29T08:35:22Z</time>
      </trkpt>
      <trkpt lat="48.31026" lon="6.71478">
        <ele>355.83</ele>
        <time>2018-03-29T08:35:39Z</time>
      </trkpt>
      <trkpt lat="48.31025" lon="6.71488">
        <ele>355.83</ele>
        <time>2018-03-29T08:35:52Z</time>
      </trkpt>
      <trkpt lat="48.31025" lon="6.71487">
        <ele>355.83</ele>
        <time>2018-03-29T08:35:53Z</time>
      </trkpt>
      <trkpt lat="48.31025" lon="6.71483">
        <ele>355.83</ele>
        <time>2018-03-29T08:35:56Z</time>
      </trkpt>
      <trkpt lat="48.3102" lon="6.71476">
        <ele>355.83</ele>
        <time>2018-03-29T08:36:04Z</time>
      </trkpt>
      <trkpt lat="48.30995" lon="6.71468">
        <ele>355.83</ele>
        <time>2018-03-29T08:36:23Z</time>
      </trkpt>
      <trkpt lat="48.30983" lon="6.71457">
        <ele>355.83</ele>
        <time>2018-03-29T08:36:36Z</time>
      </trkpt>
      <trkpt lat="48.30983" lon="6.71457">
        <ele>355.83</ele>
        <time>2018-03-29T08:36:41Z</time>
      </trkpt>
      <trkpt lat="48.30966" lon="6.71471">
        <ele>355.83</ele>
        <time>2018-03-29T08:36:56Z</time>
      </trkpt>
      <trkpt lat="48.30964" lon="6.71473">
        <ele>355.83</ele>
        <time>2018-03-29T08:36:58Z</time>
      </trkpt>
      <trkpt lat="48.30949" lon="6.71493">
        <ele>355.83</ele>
        <time>2018-03-29T08:37:14Z</time>
      </trkpt>
      <trkpt lat="48.30934" lon="6.7151">
        <ele>356.31</ele>
        <time>2018-03-29T08:37:27Z</time>
      </trkpt>
      <trkpt lat="48.30912" lon="6.71527">
        <ele>356.79</ele>
        <time>2018-03-29T08:37:45Z</time>
      </trkpt>
      <trkpt lat="48.30894" lon="6.71535">
        <ele>357.27</ele>
        <time>2018-03-29T08:38:00Z</time>
      </trkpt>
      <trkpt lat="48.30872" lon="6.71551">
        <ele>357.75</ele>
        <time>2018-03-29T08:38:19Z</time>
      </trkpt>
      <trkpt lat="48.30856" lon="6.71565">
        <ele>359.19</ele>
        <time>2018-03-29T08:38:33Z</time>
      </trkpt>
      <trkpt lat="48.30836" lon="6.71582">
        <ele>359.67</ele>
        <time>2018-03-29T08:38:50Z</time>
      </trkpt>
      <trkpt lat="48.30815" lon="6.71599">
        <ele>360.63</ele>
        <time>2018-03-29T08:39:07Z</time>
      </trkpt>
      <trkpt lat="48.30797" lon="6.71616">
        <ele>361.59</ele>
        <time>2018-03-29T08:39:22Z</time>
      </trkpt>
      <trkpt lat="48.30782" lon="6.7164">
        <ele>362.07</ele>
        <time>2018-03-29T08:39:38Z</time>
      </trkpt>
      <trkpt lat="48.30771" lon="6.71664">
        <ele>363.04</ele>
        <time>2018-03-29T08:39:54Z</time>
      </trkpt>
      <trkpt lat="48.30762" lon="6.71697">
        <ele>363.52</ele>
        <time>2018-03-29T08:40:10Z</time>
      </trkpt>
      <trkpt lat="48.30752" lon="6.71733">
        <ele>364.48</ele>
        <time>2018-03-29T08:40:29Z</time>
      </trkpt>
      <trkpt lat="48.30743" lon="6.71764">
        <ele>365.44</ele>
        <time>2018-03-29T08:40:46Z</time>
      </trkpt>
      <trkpt lat="48.30734" lon="6.71787">
        <ele>366.4</ele>
        <time>2018-03-29T08:40:59Z</time>
      </trkpt>
      <trkpt lat="48.30725" lon="6.71814">
        <ele>367.84</ele>
        <time>2018-03-29T08:41:14Z</time>
      </trkpt>
      <trkpt lat="48.30716" lon="6.71845">
        <ele>369.28</ele>
        <time>2018-03-29T08:41:32Z</time>
      </trkpt>
      <trkpt lat="48.30711" lon="6.71863">
        <ele>370.73</ele>
        <time>2018-03-29T08:41:41Z</time>
      </trkpt>
      <trkpt lat="48.30702" lon="6.71896">
        <ele>371.21</ele>
        <time>2018-03-29T08:41:59Z</time>
      </trkpt>
      <trkpt lat="48.30698" lon="6.71912">
        <ele>371.69</ele>
        <time>2018-03-29T08:42:13Z</time>
      </trkpt>
      <trkpt lat="48.3069" lon="6.71937">
        <ele>372.17</ele>
        <time>2018-03-29T08:42:28Z</time>
      </trkpt>
      <trkpt lat="48.30683" lon="6.71956">
        <ele>372.17</ele>
        <time>2018-03-29T08:42:38Z</time>
      </trkpt>
      <trkpt lat="48.30672" lon="6.7198">
        <ele>372.17</ele>
        <time>2018-03-29T08:42:53Z</time>
      </trkpt>
      <trkpt lat="48.30659" lon="6.72004">
        <ele>372.17</ele>
        <time>2018-03-29T08:43:08Z</time>
      </trkpt>
      <trkpt lat="48.30647" lon="6.72025">
        <ele>372.17</ele>
        <time>2018-03-29T08:43:23Z</time>
      </trkpt>
      <trkpt lat="48.3063" lon="6.72051">
        <ele>372.65</ele>
        <time>2018-03-29T08:43:41Z</time>
      </trkpt>
      <trkpt lat="48.30613" lon="6.72077">
        <ele>373.61</ele>
        <time>2018-03-29T08:43:59Z</time>
      </trkpt>
      <trkpt lat="48.30613" lon="6.72078">
        <ele>373.61</ele>
        <time>2018-03-29T08:44:00Z</time>
      </trkpt>
      <trkpt lat="48.30598" lon="6.72102">
        <ele>373.61</ele>
        <time>2018-03-29T08:44:16Z</time>
      </trkpt>
      <trkpt lat="48.30582" lon="6.72128">
        <ele>373.13</ele>
        <time>2018-03-29T08:44:34Z</time>
      </trkpt>
      <trkpt lat="48.30568" lon="6.72148">
        <ele>373.13</ele>
        <time>2018-03-29T08:44:48Z</time>
      </trkpt>
      <trkpt lat="48.30547" lon="6.72172">
        <ele>373.13</ele>
        <time>2018-03-29T08:45:08Z</time>
      </trkpt>
      <trkpt lat="48.30522" lon="6.7219">
        <ele>373.13</ele>
        <time>2018-03-29T08:45:30Z</time>
      </trkpt>
      <trkpt lat="48.30498" lon="6.7221">
        <ele>373.13</ele>
        <time>2018-03-29T08:45:52Z</time>
      </trkpt>
      <trkpt lat="48.30486" lon="6.72231">
        <ele>372.65</ele>
        <time>2018-03-29T08:46:07Z</time>
      </trkpt>
      <trkpt lat="48.30483" lon="6.72268">
        <ele>372.65</ele>
        <time>2018-03-29T08:46:26Z</time>
      </trkpt>
      <trkpt lat="48.30487" lon="6.72312">
        <ele>373.13</ele>
        <time>2018-03-29T08:46:47Z</time>
      </trkpt>
      <trkpt lat="48.30494" lon="6.72343">
        <ele>374.57</ele>
        <time>2018-03-29T08:47:05Z</time>
      </trkpt>
      <trkpt lat="48.30497" lon="6.72359">
        <ele>375.53</ele>
        <time>2018-03-29T08:47:12Z</time>
      </trkpt>
      <trkpt lat="48.30498" lon="6.72371">
        <ele>375.53</ele>
        <time>2018-03-29T08:47:18Z</time>
      </trkpt>
      <trkpt lat="48.30503" lon="6.72391">
        <ele>376.97</ele>
        <time>2018-03-29T08:47:29Z</time>
      </trkpt>
      <trkpt lat="48.30504" lon="6.72398">
        <ele>376.97</ele>
        <time>2018-03-29T08:47:33Z</time>
      </trkpt>
      <trkpt lat="48.30506" lon="6.72407">
        <ele>377.45</ele>
        <time>2018-03-29T08:47:37Z</time>
      </trkpt>
      <trkpt lat="48.30507" lon="6.72426">
        <ele>378.9</ele>
        <time>2018-03-29T08:47:52Z</time>
      </trkpt>
      <trkpt lat="48.30503" lon="6.72431">
        <ele>379.86</ele>
        <time>2018-03-29T08:48:07Z</time>
      </trkpt>
      <trkpt lat="48.30503" lon="6.72431">
        <ele>379.86</ele>
        <time>2018-03-29T08:48:16Z</time>
      </trkpt>
      <trkpt lat="48.30502" lon="6.72433">
        <ele>379.86</ele>
        <time>2018-03-29T08:48:18Z</time>
      </trkpt>
      <trkpt lat="48.305" lon="6.72436">
        <ele>380.34</ele>
        <time>2018-03-29T08:48:31Z</time>
      </trkpt>
      <trkpt lat="48.30499" lon="6.72434">
        <ele>380.34</ele>
        <time>2018-03-29T08:48:33Z</time>
      </trkpt>
      <trkpt lat="48.3048" lon="6.7243">
        <ele>381.78</ele>
        <time>2018-03-29T08:48:48Z</time>
      </trkpt>
      <trkpt lat="48.30466" lon="6.72436">
        <ele>383.7</ele>
        <time>2018-03-29T08:49:01Z</time>
      </trkpt>
      <trkpt lat="48.30447" lon="6.7245">
        <ele>385.63</ele>
        <time>2018-03-29T08:49:17Z</time>
      </trkpt>
      <trkpt lat="48.30446" lon="6.72451">
        <ele>385.63</ele>
        <time>2018-03-29T08:49:18Z</time>
      </trkpt>
      <trkpt lat="48.30428" lon="6.7246">
        <ele>387.07</ele>
        <time>2018-03-29T08:49:35Z</time>
      </trkpt>
      <trkpt lat="48.30398" lon="6.72465">
        <ele>388.03</ele>
        <time>2018-03-29T08:49:55Z</time>
      </trkpt>
      <trkpt lat="48.30376" lon="6.72482">
        <ele>389.95</ele>
        <time>2018-03-29T08:50:15Z</time>
      </trkpt>
      <trkpt lat="48.3036" lon="6.72502">
        <ele>391.39</ele>
        <time>2018-03-29T08:50:29Z</time>
      </trkpt>
      <trkpt lat="48.30344" lon="6.72518">
        <ele>392.36</ele>
        <time>2018-03-29T08:50:42Z</time>
      </trkpt>
      <trkpt lat="48.30329" lon="6.72527">
        <ele>392.36</ele>
        <time>2018-03-29T08:50:55Z</time>
      </trkpt>
      <trkpt lat="48.30315" lon="6.7253">
        <ele>392.36</ele>
        <time>2018-03-29T08:51:07Z</time>
      </trkpt>
      <trkpt lat="48.3031" lon="6.72529">
        <ele>392.84</ele>
        <time>2018-03-29T08:51:13Z</time>
      </trkpt>
      <trkpt lat="48.30297" lon="6.72524">
        <ele>392.84</ele>
        <time>2018-03-29T08:51:25Z</time>
      </trkpt>
      <trkpt lat="48.30288" lon="6.72524">
        <ele>393.32</ele>
        <time>2018-03-29T08:51:32Z</time>
      </trkpt>
      <trkpt lat="48.30273" lon="6.72523">
        <ele>393.8</ele>
        <time>2018-03-29T08:51:44Z</time>
      </trkpt>
      <trkpt lat="48.30254" lon="6.72525">
        <ele>394.28</ele>
        <time>2018-03-29T08:51:56Z</time>
      </trkpt>
      <trkpt lat="48.30253" lon="6.72525">
        <ele>394.28</ele>
        <time>2018-03-29T08:51:57Z</time>
      </trkpt>
      <trkpt lat="48.30229" lon="6.72529">
        <ele>394.76</ele>
        <time>2018-03-29T08:52:11Z</time>
      </trkpt>
      <trkpt lat="48.30213" lon="6.72525">
        <ele>395.24</ele>
        <time>2018-03-29T08:52:27Z</time>
      </trkpt>
      <trkpt lat="48.302" lon="6.72523">
        <ele>396.2</ele>
        <time>2018-03-29T08:52:40Z</time>
      </trkpt>
      <trkpt lat="48.30179" lon="6.72527">
        <ele>396.68</ele>
        <time>2018-03-29T08:52:54Z</time>
      </trkpt>
      <trkpt lat="48.30148" lon="6.72545">
        <ele>397.16</ele>
        <time>2018-03-29T08:53:08Z</time>
      </trkpt>
      <trkpt lat="48.30134" lon="6.72546">
        <ele>397.16</ele>
        <time>2018-03-29T08:53:21Z</time>
      </trkpt>
      <trkpt lat="48.30111" lon="6.7255">
        <ele>397.64</ele>
        <time>2018-03-29T08:53:37Z</time>
      </trkpt>
      <trkpt lat="48.30096" lon="6.72553">
        <ele>398.6</ele>
        <time>2018-03-29T08:53:51Z</time>
      </trkpt>
      <trkpt lat="48.30079" lon="6.72552">
        <ele>399.08</ele>
        <time>2018-03-29T08:54:04Z</time>
      </trkpt>
      <trkpt lat="48.30047" lon="6.72563">
        <ele>400.05</ele>
        <time>2018-03-29T08:54:22Z</time>
      </trkpt>
      <trkpt lat="48.30031" lon="6.72568">
        <ele>401.01</ele>
        <time>2018-03-29T08:54:34Z</time>
      </trkpt>
      <trkpt lat="48.30019" lon="6.72569">
        <ele>401.49</ele>
        <time>2018-03-29T08:54:47Z</time>
      </trkpt>
      <trkpt lat="48.30017" lon="6.72568">
        <ele>401.49</ele>
        <time>2018-03-29T08:54:49Z</time>
      </trkpt>
      <trkpt lat="48.29998" lon="6.72576">
        <ele>402.45</ele>
        <time>2018-03-29T08:55:01Z</time>
      </trkpt>
      <trkpt lat="48.29978" lon="6.72584">
        <ele>402.93</ele>
        <time>2018-03-29T08:55:15Z</time>
      </trkpt>
      <trkpt lat="48.29966" lon="6.72585">
        <ele>402.93</ele>
        <time>2018-03-29T08:55:28Z</time>
      </trkpt>
      <trkpt lat="48.29948" lon="6.72584">
        <ele>402.93</ele>
        <time>2018-03-29T08:55:42Z</time>
      </trkpt>
      <trkpt lat="48.2993" lon="6.72585">
        <ele>402.93</ele>
        <time>2018-03-29T08:55:55Z</time>
      </trkpt>
      <trkpt lat="48.29911" lon="6.72586">
        <ele>402.45</ele>
        <time>2018-03-29T08:56:07Z</time>
      </trkpt>
      <trkpt lat="48.29891" lon="6.72585">
        <ele>401.97</ele>
        <time>2018-03-29T08:56:23Z</time>
      </trkpt>
      <trkpt lat="48.29872" lon="6.72582">
        <ele>401.49</ele>
        <time>2018-03-29T08:56:36Z</time>
      </trkpt>
      <trkpt lat="48.29851" lon="6.72576">
        <ele>401.01</ele>
        <time>2018-03-29T08:56:51Z</time>
      </trkpt>
      <trkpt lat="48.29825" lon="6.7257">
        <ele>400.53</ele>
        <time>2018-03-29T08:57:08Z</time>
      </trkpt>
      <trkpt lat="48.29805" lon="6.72567">
        <ele>400.53</ele>
        <time>2018-03-29T08:57:20Z</time>
      </trkpt>
      <trkpt lat="48.29789" lon="6.72561">
        <ele>400.05</ele>
        <time>2018-03-29T08:57:33Z</time>
      </trkpt>
      <trkpt lat="48.29774" lon="6.72554">
        <ele>398.6</ele>
        <time>2018-03-29T08:57:46Z</time>
      </trkpt>
      <trkpt lat="48.29773" lon="6.72554">
        <ele>398.6</ele>
        <time>2018-03-29T08:57:47Z</time>
      </trkpt>
      <trkpt lat="48.29757" lon="6.72547">
        <ele>397.64</ele>
        <time>2018-03-29T08:58:00Z</time>
      </trkpt>
      <trkpt lat="48.29748" lon="6.72555">
        <ele>397.16</ele>
        <time>2018-03-29T08:58:13Z</time>
      </trkpt>
      <trkpt lat="48.2974" lon="6.7256">
        <ele>396.68</ele>
        <time>2018-03-29T08:58:29Z</time>
      </trkpt>
      <trkpt lat="48.29742" lon="6.72558">
        <ele>396.2</ele>
        <time>2018-03-29T08:58:48Z</time>
      </trkpt>
      <trkpt lat="48.2974" lon="6.72552">
        <ele>396.2</ele>
        <time>2018-03-29T08:58:50Z</time>
      </trkpt>
      <trkpt lat="48.29737" lon="6.72539">
        <ele>395.72</ele>
        <time>2018-03-29T08:58:55Z</time>
      </trkpt>
      <trkpt lat="48.29735" lon="6.72526">
        <ele>394.76</ele>
        <time>2018-03-29T08:59:02Z</time>
      </trkpt>
      <trkpt lat="48.29723" lon="6.72515">
        <ele>393.8</ele>
        <time>2018-03-29T08:59:16Z</time>
      </trkpt>
      <trkpt lat="48.29717" lon="6.72512">
        <ele>393.32</ele>
        <time>2018-03-29T08:59:22Z</time>
      </trkpt>
      <trkpt lat="48.29695" lon="6.72494">
        <ele>391.87</ele>
        <time>2018-03-29T08:59:39Z</time>
      </trkpt>
      <trkpt lat="48.29676" lon="6.72481">
        <ele>389.47</ele>
        <time>2018-03-29T08:59:56Z</time>
      </trkpt>
      <trkpt lat="48.29658" lon="6.72472">
        <ele>388.51</ele>
        <time>2018-03-29T09:00:10Z</time>
      </trkpt>
      <trkpt lat="48.29643" lon="6.72464">
        <ele>387.07</ele>
        <time>2018-03-29T09:00:22Z</time>
      </trkpt>
      <trkpt lat="48.29629" lon="6.72455">
        <ele>386.59</ele>
        <time>2018-03-29T09:00:33Z</time>
      </trkpt>
      <trkpt lat="48.29609" lon="6.72446">
        <ele>385.63</ele>
        <time>2018-03-29T09:00:49Z</time>
      </trkpt>
      <trkpt lat="48.29605" lon="6.72447">
        <ele>385.63</ele>
        <time>2018-03-29T09:00:53Z</time>
      </trkpt>
      <trkpt lat="48.29596" lon="6.72451">
        <ele>385.63</ele>
        <time>2018-03-29T09:00:59Z</time>
      </trkpt>
      <trkpt lat="48.2958" lon="6.72443">
        <ele>383.7</ele>
        <time>2018-03-29T09:01:13Z</time>
      </trkpt>
      <trkpt lat="48.29568" lon="6.72432">
        <ele>382.26</ele>
        <time>2018-03-29T09:01:24Z</time>
      </trkpt>
      <trkpt lat="48.29552" lon="6.72412">
        <ele>380.82</ele>
        <time>2018-03-29T09:01:40Z</time>
      </trkpt>
      <trkpt lat="48.29549" lon="6.72406">
        <ele>380.82</ele>
        <time>2018-03-29T09:02:02Z</time>
      </trkpt>
      <trkpt lat="48.29547" lon="6.72407">
        <ele>380.82</ele>
        <time>2018-03-29T09:02:06Z</time>
      </trkpt>
      <trkpt lat="48.29542" lon="6.72411">
        <ele>380.82</ele>
        <time>2018-03-29T09:02:10Z</time>
      </trkpt>
      <trkpt lat="48.29527" lon="6.7242">
        <ele>380.82</ele>
        <time>2018-03-29T09:02:24Z</time>
      </trkpt>
      <trkpt lat="48.29524" lon="6.7242">
        <ele>380.82</ele>
        <time>2018-03-29T09:02:27Z</time>
      </trkpt>
      <trkpt lat="48.29505" lon="6.72427">
        <ele>382.74</ele>
        <time>2018-03-29T09:02:42Z</time>
      </trkpt>
      <trkpt lat="48.29485" lon="6.7242">
        <ele>382.26</ele>
        <time>2018-03-29T09:02:57Z</time>
      </trkpt>
      <trkpt lat="48.29471" lon="6.7241">
        <ele>381.3</ele>
        <time>2018-03-29T09:03:11Z</time>
      </trkpt>
      <trkpt lat="48.2945" lon="6.72396">
        <ele>379.86</ele>
        <time>2018-03-29T09:03:28Z</time>
      </trkpt>
      <trkpt lat="48.29438" lon="6.72379">
        <ele>377.94</ele>
        <time>2018-03-29T09:03:40Z</time>
      </trkpt>
      <trkpt lat="48.29434" lon="6.72373">
        <ele>377.94</ele>
        <time>2018-03-29T09:03:44Z</time>
      </trkpt>
      <trkpt lat="48.29416" lon="6.72362">
        <ele>376.97</ele>
        <time>2018-03-29T09:04:00Z</time>
      </trkpt>
      <trkpt lat="48.29386" lon="6.72356">
        <ele>374.09</ele>
        <time>2018-03-29T09:04:21Z</time>
      </trkpt>
      <trkpt lat="48.2938" lon="6.72355">
        <ele>373.61</ele>
        <time>2018-03-29T09:04:25Z</time>
      </trkpt>
      <trkpt lat="48.29373" lon="6.72354">
        <ele>374.09</ele>
        <time>2018-03-29T09:04:30Z</time>
      </trkpt>
      <trkpt lat="48.29352" lon="6.72357">
        <ele>374.09</ele>
        <time>2018-03-29T09:04:49Z</time>
      </trkpt>
      <trkpt lat="48.2933" lon="6.72359">
        <ele>374.57</ele>
        <time>2018-03-29T09:05:04Z</time>
      </trkpt>
      <trkpt lat="48.29321" lon="6.72361">
        <ele>372.17</ele>
        <time>2018-03-29T09:05:08Z</time>
      </trkpt>
      <trkpt lat="48.29301" lon="6.72381">
        <ele>372.17</ele>
        <time>2018-03-29T09:05:25Z</time>
      </trkpt>
      <trkpt lat="48.29297" lon="6.72385">
        <ele>372.17</ele>
        <time>2018-03-29T09:05:29Z</time>
      </trkpt>
      <trkpt lat="48.29285" lon="6.72415">
        <ele>373.13</ele>
        <time>2018-03-29T09:05:47Z</time>
      </trkpt>
      <trkpt lat="48.2928" lon="6.72425">
        <ele>375.05</ele>
        <time>2018-03-29T09:05:52Z</time>
      </trkpt>
      <trkpt lat="48.29279" lon="6.72427">
        <ele>375.05</ele>
        <time>2018-03-29T09:05:53Z</time>
      </trkpt>
      <trkpt lat="48.29271" lon="6.72436">
        <ele>373.61</ele>
        <time>2018-03-29T09:06:01Z</time>
      </trkpt>
      <trkpt lat="48.29268" lon="6.72439">
        <ele>373.13</ele>
        <time>2018-03-29T09:06:05Z</time>
      </trkpt>
      <trkpt lat="48.29258" lon="6.72458">
        <ele>372.65</ele>
        <time>2018-03-29T09:06:21Z</time>
      </trkpt>
      <trkpt lat="48.29254" lon="6.72477">
        <ele>372.65</ele>
        <time>2018-03-29T09:06:36Z</time>
      </trkpt>
      <trkpt lat="48.29243" lon="6.72505">
        <ele>371.69</ele>
        <time>2018-03-29T09:06:53Z</time>
      </trkpt>
      <trkpt lat="48.2923" lon="6.72536">
        <ele>369.76</ele>
        <time>2018-03-29T09:07:10Z</time>
      </trkpt>
      <trkpt lat="48.29217" lon="6.7256">
        <ele>366.88</ele>
        <time>2018-03-29T09:07:26Z</time>
      </trkpt>
      <trkpt lat="48.29201" lon="6.72578">
        <ele>365.44</ele>
        <time>2018-03-29T09:07:32Z</time>
      </trkpt>
      <trkpt lat="48.29184" lon="6.72604">
        <ele>364.48</ele>
        <time>2018-03-29T09:07:49Z</time>
      </trkpt>
      <trkpt lat="48.29173" lon="6.72628">
        <ele>363.52</ele>
        <time>2018-03-29T09:08:05Z</time>
      </trkpt>
      <trkpt lat="48.2916" lon="6.72641">
        <ele>362.55</ele>
        <time>2018-03-29T09:08:20Z</time>
      </trkpt>
      <trkpt lat="48.29155" lon="6.72644">
        <ele>362.55</ele>
        <time>2018-03-29T09:08:25Z</time>
      </trkpt>
      <trkpt lat="48.29131" lon="6.72671">
        <ele>361.59</ele>
        <time>2018-03-29T09:08:41Z</time>
      </trkpt>
      <trkpt lat="48.29119" lon="6.72681">
        <ele>361.11</ele>
        <time>2018-03-29T09:08:52Z</time>
      </trkpt>
      <trkpt lat="48.29115" lon="6.72684">
        <ele>360.63</ele>
        <time>2018-03-29T09:08:56Z</time>
      </trkpt>
      <trkpt lat="48.2911" lon="6.72687">
        <ele>360.15</ele>
        <time>2018-03-29T09:09:00Z</time>
      </trkpt>
      <trkpt lat="48.29086" lon="6.72701">
        <ele>359.19</ele>
        <time>2018-03-29T09:09:18Z</time>
      </trkpt>
      <trkpt lat="48.29079" lon="6.72704">
        <ele>359.19</ele>
        <time>2018-03-29T09:09:25Z</time>
      </trkpt>
      <trkpt lat="48.29073" lon="6.72711">
        <ele>358.71</ele>
        <time>2018-03-29T09:09:31Z</time>
      </trkpt>
      <trkpt lat="48.29055" lon="6.72732">
        <ele>358.23</ele>
        <time>2018-03-29T09:09:47Z</time>
      </trkpt>
      <trkpt lat="48.29052" lon="6.72733">
        <ele>358.23</ele>
        <time>2018-03-29T09:09:49Z</time>
      </trkpt>
      <trkpt lat="48.2904" lon="6.72743">
        <ele>358.23</ele>
        <time>2018-03-29T09:10:02Z</time>
      </trkpt>
      <trkpt lat="48.29021" lon="6.72746">
        <ele>357.75</ele>
        <time>2018-03-29T09:10:19Z</time>
      </trkpt>
      <trkpt lat="48.29017" lon="6.72741">
        <ele>357.75</ele>
        <time>2018-03-29T09:10:24Z</time>
      </trkpt>
      <trkpt lat="48.29002" lon="6.72715">
        <ele>357.75</ele>
        <time>2018-03-29T09:10:42Z</time>
      </trkpt>
      <trkpt lat="48.28987" lon="6.72692">
        <ele>357.27</ele>
        <time>2018-03-29T09:10:56Z</time>
      </trkpt>
      <trkpt lat="48.28965" lon="6.72685">
        <ele>357.75</ele>
        <time>2018-03-29T09:11:16Z</time>
      </trkpt>
      <trkpt lat="48.28959" lon="6.72687">
        <ele>359.19</ele>
        <time>2018-03-29T09:11:20Z</time>
      </trkpt>
      <trkpt lat="48.28944" lon="6.72698">
        <ele>360.15</ele>
        <time>2018-03-29T09:11:39Z</time>
      </trkpt>
      <trkpt lat="48.28927" lon="6.7273">
        <ele>362.07</ele>
        <time>2018-03-29T09:11:57Z</time>
      </trkpt>
      <trkpt lat="48.2891" lon="6.72755">
        <ele>364</ele>
        <time>2018-03-29T09:12:16Z</time>
      </trkpt>
      <trkpt lat="48.2889" lon="6.72777">
        <ele>366.4</ele>
        <time>2018-03-29T09:12:35Z</time>
      </trkpt>
      <trkpt lat="48.28866" lon="6.72798">
        <ele>369.28</ele>
        <time>2018-03-29T09:12:54Z</time>
      </trkpt>
      <trkpt lat="48.2885" lon="6.72815">
        <ele>372.17</ele>
        <time>2018-03-29T09:13:12Z</time>
      </trkpt>
      <trkpt lat="48.28838" lon="6.72854">
        <ele>374.09</ele>
        <time>2018-03-29T09:13:34Z</time>
      </trkpt>
      <trkpt lat="48.28835" lon="6.72878">
        <ele>375.05</ele>
        <time>2018-03-29T09:13:45Z</time>
      </trkpt>
      <trkpt lat="48.28831" lon="6.72904">
        <ele>376.49</ele>
        <time>2018-03-29T09:13:58Z</time>
      </trkpt>
      <trkpt lat="48.28819" lon="6.72926">
        <ele>377.94</ele>
        <time>2018-03-29T09:14:16Z</time>
      </trkpt>
      <trkpt lat="48.28815" lon="6.72934">
        <ele>377.94</ele>
        <time>2018-03-29T09:14:34Z</time>
      </trkpt>
      <trkpt lat="48.28814" lon="6.72935">
        <ele>377.94</ele>
        <time>2018-03-29T09:14:35Z</time>
      </trkpt>
      <trkpt lat="48.28812" lon="6.72936">
        <ele>376.49</ele>
        <time>2018-03-29T09:14:37Z</time>
      </trkpt>
      <trkpt lat="48.28798" lon="6.72936">
        <ele>373.61</ele>
        <time>2018-03-29T09:14:52Z</time>
      </trkpt>
      <trkpt lat="48.28777" lon="6.72944">
        <ele>372.65</ele>
        <time>2018-03-29T09:15:11Z</time>
      </trkpt>
      <trkpt lat="48.2876" lon="6.72979">
        <ele>372.65</ele>
        <time>2018-03-29T09:15:31Z</time>
      </trkpt>
      <trkpt lat="48.2877" lon="6.73002">
        <ele>372.65</ele>
        <time>2018-03-29T09:15:45Z</time>
      </trkpt>
      <trkpt lat="48.28771" lon="6.73004">
        <ele>372.65</ele>
        <time>2018-03-29T09:15:46Z</time>
      </trkpt>
      <trkpt lat="48.28789" lon="6.73025">
        <ele>372.65</ele>
        <time>2018-03-29T09:16:04Z</time>
      </trkpt>
      <trkpt lat="48.28799" lon="6.7305">
        <ele>372.65</ele>
        <time>2018-03-29T09:16:19Z</time>
      </trkpt>
      <trkpt lat="48.28799" lon="6.73054">
        <ele>373.61</ele>
        <time>2018-03-29T09:16:21Z</time>
      </trkpt>
      <trkpt lat="48.28799" lon="6.73087">
        <ele>374.57</ele>
        <time>2018-03-29T09:16:39Z</time>
      </trkpt>
      <trkpt lat="48.28798" lon="6.73096">
        <ele>374.57</ele>
        <time>2018-03-29T09:16:43Z</time>
      </trkpt>
      <trkpt lat="48.28795" lon="6.7311">
        <ele>375.05</ele>
        <time>2018-03-29T09:16:49Z</time>
      </trkpt>
      <trkpt lat="48.28789" lon="6.73141">
        <ele>375.53</ele>
        <time>2018-03-29T09:17:08Z</time>
      </trkpt>
      <trkpt lat="48.28783" lon="6.73172">
        <ele>376.49</ele>
        <time>2018-03-29T09:17:26Z</time>
      </trkpt>
      <trkpt lat="48.28773" lon="6.73201">
        <ele>376.97</ele>
        <time>2018-03-29T09:17:45Z</time>
      </trkpt>
      <trkpt lat="48.28754" lon="6.73243">
        <ele>377.45</ele>
        <time>2018-03-29T09:18:00Z</time>
      </trkpt>
      <trkpt lat="48.28737" lon="6.73256">
        <ele>377.45</ele>
        <time>2018-03-29T09:18:15Z</time>
      </trkpt>
      <trkpt lat="48.28714" lon="6.73271">
        <ele>376.01</ele>
        <time>2018-03-29T09:18:33Z</time>
      </trkpt>
      <trkpt lat="48.28707" lon="6.73278">
        <ele>376.01</ele>
        <time>2018-03-29T09:18:43Z</time>
      </trkpt>
      <trkpt lat="48.28712" lon="6.73301">
        <ele>375.05</ele>
        <time>2018-03-29T09:18:58Z</time>
      </trkpt>
      <trkpt lat="48.28728" lon="6.73319">
        <ele>374.57</ele>
        <time>2018-03-29T09:19:16Z</time>
      </trkpt>
      <trkpt lat="48.28746" lon="6.73346">
        <ele>373.13</ele>
        <time>2018-03-29T09:19:37Z</time>
      </trkpt>
      <trkpt lat="48.28762" lon="6.73382">
        <ele>369.76</ele>
        <time>2018-03-29T09:19:54Z</time>
      </trkpt>
      <trkpt lat="48.2877" lon="6.73422">
        <ele>369.76</ele>
        <time>2018-03-29T09:20:13Z</time>
      </trkpt>
      <trkpt lat="48.28772" lon="6.73453">
        <ele>369.28</ele>
        <time>2018-03-29T09:20:31Z</time>
      </trkpt>
      <trkpt lat="48.28771" lon="6.7349">
        <ele>370.24</ele>
        <time>2018-03-29T09:20:47Z</time>
      </trkpt>
      <trkpt lat="48.28774" lon="6.73516">
        <ele>371.21</ele>
        <time>2018-03-29T09:21:03Z</time>
      </trkpt>
      <trkpt lat="48.28778" lon="6.73545">
        <ele>372.17</ele>
        <time>2018-03-29T09:21:20Z</time>
      </trkpt>
      <trkpt lat="48.28777" lon="6.73581">
        <ele>374.09</ele>
        <time>2018-03-29T09:21:42Z</time>
      </trkpt>
      <trkpt lat="48.28775" lon="6.73619">
        <ele>375.53</ele>
        <time>2018-03-29T09:22:03Z</time>
      </trkpt>
      <trkpt lat="48.28773" lon="6.73645">
        <ele>376.01</ele>
        <time>2018-03-29T09:22:12Z</time>
      </trkpt>
      <trkpt lat="48.28767" lon="6.73686">
        <ele>375.53</ele>
        <time>2018-03-29T09:22:27Z</time>
      </trkpt>
      <trkpt lat="48.2877" lon="6.73704">
        <ele>375.53</ele>
        <time>2018-03-29T09:22:38Z</time>
      </trkpt>
      <trkpt lat="48.28776" lon="6.73725">
        <ele>375.53</ele>
        <time>2018-03-29T09:22:51Z</time>
      </trkpt>
      <trkpt lat="48.28778" lon="6.73748">
        <ele>376.49</ele>
        <time>2018-03-29T09:23:04Z</time>
      </trkpt>
      <trkpt lat="48.28777" lon="6.73766">
        <ele>375.05</ele>
        <time>2018-03-29T09:23:13Z</time>
      </trkpt>
      <trkpt lat="48.28783" lon="6.73795">
        <ele>374.57</ele>
        <time>2018-03-29T09:23:30Z</time>
      </trkpt>
      <trkpt lat="48.28787" lon="6.73823">
        <ele>374.57</ele>
        <time>2018-03-29T09:23:40Z</time>
      </trkpt>
      <trkpt lat="48.2879" lon="6.73876">
        <ele>376.01</ele>
        <time>2018-03-29T09:23:55Z</time>
      </trkpt>
      <trkpt lat="48.28791" lon="6.73887">
        <ele>376.01</ele>
        <time>2018-03-29T09:24:00Z</time>
      </trkpt>
      <trkpt lat="48.2879" lon="6.73918">
        <ele>373.61</ele>
        <time>2018-03-29T09:24:18Z</time>
      </trkpt>
      <trkpt lat="48.28794" lon="6.73945">
        <ele>372.65</ele>
        <time>2018-03-29T09:24:34Z</time>
      </trkpt>
      <trkpt lat="48.28804" lon="6.73969">
        <ele>372.17</ele>
        <time>2018-03-29T09:24:49Z</time>
      </trkpt>
      <trkpt lat="48.28806" lon="6.73978">
        <ele>373.13</ele>
        <time>2018-03-29T09:25:01Z</time>
      </trkpt>
      <trkpt lat="48.28806" lon="6.73976">
        <ele>373.13</ele>
        <time>2018-03-29T09:25:24Z</time>
      </trkpt>
      <trkpt lat="48.28805" lon="6.7398">
        <ele>373.13</ele>
        <time>2018-03-29T09:25:32Z</time>
      </trkpt>
      <trkpt lat="48.288" lon="6.74002">
        <ele>375.53</ele>
        <time>2018-03-29T09:25:48Z</time>
      </trkpt>
      <trkpt lat="48.288" lon="6.74035">
        <ele>377.45</ele>
        <time>2018-03-29T09:26:07Z</time>
      </trkpt>
      <trkpt lat="48.28801" lon="6.7406">
        <ele>380.82</ele>
        <time>2018-03-29T09:26:22Z</time>
      </trkpt>
      <trkpt lat="48.28804" lon="6.74092">
        <ele>383.22</ele>
        <time>2018-03-29T09:26:41Z</time>
      </trkpt>
      <trkpt lat="48.28806" lon="6.74118">
        <ele>386.11</ele>
        <time>2018-03-29T09:26:59Z</time>
      </trkpt>
      <trkpt lat="48.28808" lon="6.74147">
        <ele>388.99</ele>
        <time>2018-03-29T09:27:15Z</time>
      </trkpt>
      <trkpt lat="48.28808" lon="6.74167">
        <ele>390.43</ele>
        <time>2018-03-29T09:27:31Z</time>
      </trkpt>
      <trkpt lat="48.28809" lon="6.74198">
        <ele>392.84</ele>
        <time>2018-03-29T09:27:50Z</time>
      </trkpt>
      <trkpt lat="48.28807" lon="6.74229">
        <ele>395.72</ele>
        <time>2018-03-29T09:28:09Z</time>
      </trkpt>
      <trkpt lat="48.288" lon="6.74257">
        <ele>398.6</ele>
        <time>2018-03-29T09:28:30Z</time>
      </trkpt>
      <trkpt lat="48.28786" lon="6.74274">
        <ele>400.53</ele>
        <time>2018-03-29T09:28:48Z</time>
      </trkpt>
      <trkpt lat="48.28765" lon="6.74279">
        <ele>403.41</ele>
        <time>2018-03-29T09:29:06Z</time>
      </trkpt>
      <trkpt lat="48.28743" lon="6.74288">
        <ele>406.29</ele>
        <time>2018-03-29T09:29:24Z</time>
      </trkpt>
      <trkpt lat="48.28726" lon="6.743">
        <ele>409.18</ele>
        <time>2018-03-29T09:29:44Z</time>
      </trkpt>
      <trkpt lat="48.28716" lon="6.74321">
        <ele>412.54</ele>
        <time>2018-03-29T09:30:03Z</time>
      </trkpt>
      <trkpt lat="48.28708" lon="6.74351">
        <ele>413.02</ele>
        <time>2018-03-29T09:30:21Z</time>
      </trkpt>
      <trkpt lat="48.28685" lon="6.74372">
        <ele>416.39</ele>
        <time>2018-03-29T09:30:40Z</time>
      </trkpt>
      <trkpt lat="48.28667" lon="6.74385">
        <ele>418.79</ele>
        <time>2018-03-29T09:31:00Z</time>
      </trkpt>
      <trkpt lat="48.28643" lon="6.74399">
        <ele>421.68</ele>
        <time>2018-03-29T09:31:21Z</time>
      </trkpt>
      <trkpt lat="48.28624" lon="6.74407">
        <ele>424.56</ele>
        <time>2018-03-29T09:31:43Z</time>
      </trkpt>
      <trkpt lat="48.28597" lon="6.74426">
        <ele>427.44</ele>
        <time>2018-03-29T09:32:03Z</time>
      </trkpt>
      <trkpt lat="48.28581" lon="6.74433">
        <ele>429.85</ele>
        <time>2018-03-29T09:32:22Z</time>
      </trkpt>
      <trkpt lat="48.28562" lon="6.74451">
        <ele>432.73</ele>
        <time>2018-03-29T09:32:40Z</time>
      </trkpt>
      <trkpt lat="48.28547" lon="6.74465">
        <ele>434.65</ele>
        <time>2018-03-29T09:32:57Z</time>
      </trkpt>
      <trkpt lat="48.28528" lon="6.74473">
        <ele>437.54</ele>
        <time>2018-03-29T09:33:19Z</time>
      </trkpt>
      <trkpt lat="48.28506" lon="6.7448">
        <ele>440.9</ele>
        <time>2018-03-29T09:33:41Z</time>
      </trkpt>
      <trkpt lat="48.28484" lon="6.74506">
        <ele>443.79</ele>
        <time>2018-03-29T09:34:02Z</time>
      </trkpt>
      <trkpt lat="48.28484" lon="6.74531">
        <ele>445.71</ele>
        <time>2018-03-29T09:34:19Z</time>
      </trkpt>
      <trkpt lat="48.28485" lon="6.74552">
        <ele>447.63</ele>
        <time>2018-03-29T09:34:36Z</time>
      </trkpt>
      <trkpt lat="48.28484" lon="6.74574">
        <ele>450.03</ele>
        <time>2018-03-29T09:34:52Z</time>
      </trkpt>
      <trkpt lat="48.28484" lon="6.74598">
        <ele>451.48</ele>
        <time>2018-03-29T09:35:09Z</time>
      </trkpt>
      <trkpt lat="48.28485" lon="6.74623">
        <ele>453.4</ele>
        <time>2018-03-29T09:35:25Z</time>
      </trkpt>
      <trkpt lat="48.28489" lon="6.74647">
        <ele>455.32</ele>
        <time>2018-03-29T09:35:43Z</time>
      </trkpt>
      <trkpt lat="48.28496" lon="6.74668">
        <ele>457.24</ele>
        <time>2018-03-29T09:36:01Z</time>
      </trkpt>
      <trkpt lat="48.28505" lon="6.7468">
        <ele>458.21</ele>
        <time>2018-03-29T09:36:21Z</time>
      </trkpt>
      <trkpt lat="48.28507" lon="6.74685">
        <ele>458.21</ele>
        <time>2018-03-29T09:36:45Z</time>
      </trkpt>
      <trkpt lat="48.28505" lon="6.74703">
        <ele>458.69</ele>
        <time>2018-03-29T09:36:59Z</time>
      </trkpt>
      <trkpt lat="48.28502" lon="6.74721">
        <ele>459.17</ele>
        <time>2018-03-29T09:37:16Z</time>
      </trkpt>
      <trkpt lat="48.28502" lon="6.74759">
        <ele>459.65</ele>
        <time>2018-03-29T09:37:35Z</time>
      </trkpt>
      <trkpt lat="48.28506" lon="6.74788">
        <ele>459.65</ele>
        <time>2018-03-29T09:37:49Z</time>
      </trkpt>
      <trkpt lat="48.28505" lon="6.74818">
        <ele>459.65</ele>
        <time>2018-03-29T09:38:04Z</time>
      </trkpt>
      <trkpt lat="48.28497" lon="6.74825">
        <ele>460.13</ele>
        <time>2018-03-29T09:38:24Z</time>
      </trkpt>
      <trkpt lat="48.28486" lon="6.74836">
        <ele>460.13</ele>
        <time>2018-03-29T09:38:40Z</time>
      </trkpt>
      <trkpt lat="48.2847" lon="6.74863">
        <ele>460.61</ele>
        <time>2018-03-29T09:38:57Z</time>
      </trkpt>
      <trkpt lat="48.2846" lon="6.74883">
        <ele>460.61</ele>
        <time>2018-03-29T09:39:13Z</time>
      </trkpt>
      <trkpt lat="48.28452" lon="6.74905">
        <ele>460.61</ele>
        <time>2018-03-29T09:39:27Z</time>
      </trkpt>
      <trkpt lat="48.28442" lon="6.74923">
        <ele>460.61</ele>
        <time>2018-03-29T09:39:41Z</time>
      </trkpt>
      <trkpt lat="48.2843" lon="6.74952">
        <ele>462.53</ele>
        <time>2018-03-29T09:39:57Z</time>
      </trkpt>
      <trkpt lat="48.28419" lon="6.74979">
        <ele>463.97</ele>
        <time>2018-03-29T09:40:14Z</time>
      </trkpt>
      <trkpt lat="48.28408" lon="6.75005">
        <ele>465.9</ele>
        <time>2018-03-29T09:40:31Z</time>
      </trkpt>
      <trkpt lat="48.28401" lon="6.75031">
        <ele>467.82</ele>
        <time>2018-03-29T09:40:47Z</time>
      </trkpt>
      <trkpt lat="48.28395" lon="6.75059">
        <ele>470.22</ele>
        <time>2018-03-29T09:41:05Z</time>
      </trkpt>
      <trkpt lat="48.28394" lon="6.75086">
        <ele>471.66</ele>
        <time>2018-03-29T09:41:21Z</time>
      </trkpt>
      <trkpt lat="48.28393" lon="6.75113">
        <ele>472.63</ele>
        <time>2018-03-29T09:41:36Z</time>
      </trkpt>
      <trkpt lat="48.284" lon="6.75122">
        <ele>473.11</ele>
        <time>2018-03-29T09:41:54Z</time>
      </trkpt>
      <trkpt lat="48.28409" lon="6.75133">
        <ele>474.07</ele>
        <time>2018-03-29T09:42:07Z</time>
      </trkpt>
      <trkpt lat="48.28412" lon="6.75136">
        <ele>474.55</ele>
        <time>2018-03-29T09:42:10Z</time>
      </trkpt>
      <trkpt lat="48.28424" lon="6.75155">
        <ele>476.47</ele>
        <time>2018-03-29T09:42:25Z</time>
      </trkpt>
      <trkpt lat="48.28431" lon="6.75163">
        <ele>475.99</ele>
        <time>2018-03-29T09:42:38Z</time>
      </trkpt>
      <trkpt lat="48.28432" lon="6.75186">
        <ele>478.39</ele>
        <time>2018-03-29T09:42:54Z</time>
      </trkpt>
      <trkpt lat="48.28431" lon="6.75207">
        <ele>481.76</ele>
        <time>2018-03-29T09:43:10Z</time>
      </trkpt>
      <trkpt lat="48.28432" lon="6.7523">
        <ele>483.68</ele>
        <time>2018-03-29T09:43:26Z</time>
      </trkpt>
      <trkpt lat="48.28433" lon="6.75249">
        <ele>485.6</ele>
        <time>2018-03-29T09:43:41Z</time>
      </trkpt>
      <trkpt lat="48.28431" lon="6.75273">
        <ele>486.56</ele>
        <time>2018-03-29T09:43:56Z</time>
      </trkpt>
      <trkpt lat="48.28435" lon="6.75281">
        <ele>487.53</ele>
        <time>2018-03-29T09:44:14Z</time>
      </trkpt>
      <trkpt lat="48.28433" lon="6.75281">
        <ele>486.56</ele>
        <time>2018-03-29T09:44:31Z</time>
      </trkpt>
      <trkpt lat="48.28426" lon="6.75275">
        <ele>486.56</ele>
        <time>2018-03-29T09:45:03Z</time>
      </trkpt>
      <trkpt lat="48.28429" lon="6.7528">
        <ele>488.01</ele>
        <time>2018-03-29T09:45:24Z</time>
      </trkpt>
      <trkpt lat="48.28433" lon="6.7528">
        <ele>487.05</ele>
        <time>2018-03-29T09:45:43Z</time>
      </trkpt>
      <trkpt lat="48.28431" lon="6.7528">
        <ele>487.53</ele>
        <time>2018-03-29T09:46:11Z</time>
      </trkpt>
      <trkpt lat="48.2843" lon="6.75284">
        <ele>487.53</ele>
        <time>2018-03-29T09:46:29Z</time>
      </trkpt>
      <trkpt lat="48.28428" lon="6.75292">
        <ele>487.53</ele>
        <time>2018-03-29T09:47:04Z</time>
      </trkpt>
      <trkpt lat="48.28424" lon="6.75285">
        <ele>488.01</ele>
        <time>2018-03-29T09:47:39Z</time>
      </trkpt>
      <trkpt lat="48.28429" lon="6.75273">
        <ele>488.49</ele>
        <time>2018-03-29T09:48:13Z</time>
      </trkpt>
      <trkpt lat="48.28433" lon="6.75281">
        <ele>488.97</ele>
        <time>2018-03-29T09:48:37Z</time>
      </trkpt>
      <trkpt lat="48.28433" lon="6.75285">
        <ele>489.93</ele>
        <time>2018-03-29T09:48:39Z</time>
      </trkpt>
      <trkpt lat="48.28438" lon="6.75309">
        <ele>490.41</ele>
        <time>2018-03-29T09:48:54Z</time>
      </trkpt>
      <trkpt lat="48.28448" lon="6.75322">
        <ele>488.97</ele>
        <time>2018-03-29T09:49:08Z</time>
      </trkpt>
      <trkpt lat="48.28448" lon="6.75339">
        <ele>490.89</ele>
        <time>2018-03-29T09:49:22Z</time>
      </trkpt>
      <trkpt lat="48.28456" lon="6.75352">
        <ele>488.97</ele>
        <time>2018-03-29T09:49:35Z</time>
      </trkpt>
      <trkpt lat="48.2846" lon="6.75368">
        <ele>487.53</ele>
        <time>2018-03-29T09:49:48Z</time>
      </trkpt>
      <trkpt lat="48.2847" lon="6.75387">
        <ele>486.08</ele>
        <time>2018-03-29T09:50:02Z</time>
      </trkpt>
      <trkpt lat="48.28473" lon="6.75406">
        <ele>484.16</ele>
        <time>2018-03-29T09:50:14Z</time>
      </trkpt>
      <trkpt lat="48.28473" lon="6.75427">
        <ele>482.24</ele>
        <time>2018-03-29T09:50:27Z</time>
      </trkpt>
      <trkpt lat="48.28468" lon="6.75449">
        <ele>480.32</ele>
        <time>2018-03-29T09:50:40Z</time>
      </trkpt>
      <trkpt lat="48.28464" lon="6.75472">
        <ele>479.35</ele>
        <time>2018-03-29T09:50:53Z</time>
      </trkpt>
      <trkpt lat="48.2846" lon="6.75496">
        <ele>479.35</ele>
        <time>2018-03-29T09:51:06Z</time>
      </trkpt>
      <trkpt lat="48.2846" lon="6.75516">
        <ele>479.35</ele>
        <time>2018-03-29T09:51:17Z</time>
      </trkpt>
      <trkpt lat="48.28464" lon="6.75541">
        <ele>479.35</ele>
        <time>2018-03-29T09:51:31Z</time>
      </trkpt>
      <trkpt lat="48.28469" lon="6.75566">
        <ele>478.87</ele>
        <time>2018-03-29T09:51:44Z</time>
      </trkpt>
      <trkpt lat="48.28483" lon="6.7558">
        <ele>478.87</ele>
        <time>2018-03-29T09:51:57Z</time>
      </trkpt>
      <trkpt lat="48.28488" lon="6.75596">
        <ele>478.87</ele>
        <time>2018-03-29T09:52:07Z</time>
      </trkpt>
      <trkpt lat="48.28487" lon="6.7561">
        <ele>478.87</ele>
        <time>2018-03-29T09:52:19Z</time>
      </trkpt>
      <trkpt lat="48.28487" lon="6.75613">
        <ele>478.87</ele>
        <time>2018-03-29T09:52:21Z</time>
      </trkpt>
      <trkpt lat="48.28487" lon="6.75625">
        <ele>478.87</ele>
        <time>2018-03-29T09:52:27Z</time>
      </trkpt>
      <trkpt lat="48.28497" lon="6.75652">
        <ele>478.39</ele>
        <time>2018-03-29T09:52:41Z</time>
      </trkpt>
      <trkpt lat="48.28506" lon="6.75673">
        <ele>478.39</ele>
        <time>2018-03-29T09:52:56Z</time>
      </trkpt>
      <trkpt lat="48.28524" lon="6.75681">
        <ele>478.39</ele>
        <time>2018-03-29T09:53:10Z</time>
      </trkpt>
      <trkpt lat="48.28542" lon="6.75685">
        <ele>478.39</ele>
        <time>2018-03-29T09:53:25Z</time>
      </trkpt>
      <trkpt lat="48.28559" lon="6.75683">
        <ele>478.39</ele>
        <time>2018-03-29T09:53:38Z</time>
      </trkpt>
      <trkpt lat="48.2856" lon="6.75683">
        <ele>478.39</ele>
        <time>2018-03-29T09:53:39Z</time>
      </trkpt>
      <trkpt lat="48.28579" lon="6.75682">
        <ele>479.35</ele>
        <time>2018-03-29T09:53:53Z</time>
      </trkpt>
      <trkpt lat="48.28599" lon="6.7569">
        <ele>479.84</ele>
        <time>2018-03-29T09:54:08Z</time>
      </trkpt>
      <trkpt lat="48.28615" lon="6.75702">
        <ele>479.84</ele>
        <time>2018-03-29T09:54:22Z</time>
      </trkpt>
      <trkpt lat="48.28628" lon="6.75718">
        <ele>480.8</ele>
        <time>2018-03-29T09:54:37Z</time>
      </trkpt>
      <trkpt lat="48.28632" lon="6.75719">
        <ele>480.8</ele>
        <time>2018-03-29T09:54:40Z</time>
      </trkpt>
      <trkpt lat="48.28648" lon="6.75714">
        <ele>481.28</ele>
        <time>2018-03-29T09:54:54Z</time>
      </trkpt>
      <trkpt lat="48.28668" lon="6.75706">
        <ele>481.76</ele>
        <time>2018-03-29T09:55:08Z</time>
      </trkpt>
      <trkpt lat="48.28679" lon="6.75703">
        <ele>481.76</ele>
        <time>2018-03-29T09:55:19Z</time>
      </trkpt>
      <trkpt lat="48.28695" lon="6.75701">
        <ele>482.24</ele>
        <time>2018-03-29T09:55:32Z</time>
      </trkpt>
      <trkpt lat="48.28702" lon="6.757">
        <ele>482.24</ele>
        <time>2018-03-29T09:55:37Z</time>
      </trkpt>
      <trkpt lat="48.28714" lon="6.75699">
        <ele>482.72</ele>
        <time>2018-03-29T09:55:47Z</time>
      </trkpt>
      <trkpt lat="48.28737" lon="6.75696">
        <ele>482.72</ele>
        <time>2018-03-29T09:56:04Z</time>
      </trkpt>
      <trkpt lat="48.28756" lon="6.75688">
        <ele>482.72</ele>
        <time>2018-03-29T09:56:17Z</time>
      </trkpt>
      <trkpt lat="48.28772" lon="6.75676">
        <ele>481.76</ele>
        <time>2018-03-29T09:56:32Z</time>
      </trkpt>
      <trkpt lat="48.28784" lon="6.75665">
        <ele>481.28</ele>
        <time>2018-03-29T09:56:43Z</time>
      </trkpt>
      <trkpt lat="48.28788" lon="6.75662">
        <ele>480.8</ele>
        <time>2018-03-29T09:56:46Z</time>
      </trkpt>
      <trkpt lat="48.28803" lon="6.75655">
        <ele>480.32</ele>
        <time>2018-03-29T09:57:00Z</time>
      </trkpt>
      <trkpt lat="48.28813" lon="6.75654">
        <ele>479.84</ele>
        <time>2018-03-29T09:57:08Z</time>
      </trkpt>
      <trkpt lat="48.28831" lon="6.75662">
        <ele>478.39</ele>
        <time>2018-03-29T09:57:24Z</time>
      </trkpt>
      <trkpt lat="48.28844" lon="6.75676">
        <ele>477.91</ele>
        <time>2018-03-29T09:57:38Z</time>
      </trkpt>
      <trkpt lat="48.28855" lon="6.75687">
        <ele>477.43</ele>
        <time>2018-03-29T09:57:51Z</time>
      </trkpt>
      <trkpt lat="48.28858" lon="6.75689">
        <ele>477.43</ele>
        <time>2018-03-29T09:58:05Z</time>
      </trkpt>
      <trkpt lat="48.28857" lon="6.75704">
        <ele>476.95</ele>
        <time>2018-03-29T09:58:19Z</time>
      </trkpt>
      <trkpt lat="48.28853" lon="6.75718">
        <ele>476.47</ele>
        <time>2018-03-29T09:58:31Z</time>
      </trkpt>
      <trkpt lat="48.28847" lon="6.75728">
        <ele>475.03</ele>
        <time>2018-03-29T09:58:39Z</time>
      </trkpt>
      <trkpt lat="48.28844" lon="6.75736">
        <ele>475.03</ele>
        <time>2018-03-29T09:58:43Z</time>
      </trkpt>
      <trkpt lat="48.28843" lon="6.75744">
        <ele>474.55</ele>
        <time>2018-03-29T09:58:47Z</time>
      </trkpt>
      <trkpt lat="48.2884" lon="6.75754">
        <ele>474.55</ele>
        <time>2018-03-29T09:58:53Z</time>
      </trkpt>
      <trkpt lat="48.2884" lon="6.75761">
        <ele>474.55</ele>
        <time>2018-03-29T09:58:56Z</time>
      </trkpt>
      <trkpt lat="48.28838" lon="6.75772">
        <ele>474.55</ele>
        <time>2018-03-29T09:59:01Z</time>
      </trkpt>
      <trkpt lat="48.28835" lon="6.75777">
        <ele>474.07</ele>
        <time>2018-03-29T09:59:05Z</time>
      </trkpt>
      <trkpt lat="48.28832" lon="6.75786">
        <ele>473.59</ele>
        <time>2018-03-29T09:59:10Z</time>
      </trkpt>
      <trkpt lat="48.28821" lon="6.75807">
        <ele>472.63</ele>
        <time>2018-03-29T09:59:25Z</time>
      </trkpt>
      <trkpt lat="48.28814" lon="6.7582">
        <ele>471.66</ele>
        <time>2018-03-29T09:59:37Z</time>
      </trkpt>
      <trkpt lat="48.2881" lon="6.75824">
        <ele>471.18</ele>
        <time>2018-03-29T09:59:42Z</time>
      </trkpt>
      <trkpt lat="48.28799" lon="6.75836">
        <ele>470.7</ele>
        <time>2018-03-29T09:59:52Z</time>
      </trkpt>
      <trkpt lat="48.28786" lon="6.75853">
        <ele>469.74</ele>
        <time>2018-03-29T10:00:06Z</time>
      </trkpt>
      <trkpt lat="48.28773" lon="6.7587">
        <ele>468.3</ele>
        <time>2018-03-29T10:00:20Z</time>
      </trkpt>
      <trkpt lat="48.28759" lon="6.75881">
        <ele>467.82</ele>
        <time>2018-03-29T10:00:32Z</time>
      </trkpt>
      <trkpt lat="48.28751" lon="6.75887">
        <ele>466.86</ele>
        <time>2018-03-29T10:00:38Z</time>
      </trkpt>
      <trkpt lat="48.28738" lon="6.759">
        <ele>463.49</ele>
        <time>2018-03-29T10:00:52Z</time>
      </trkpt>
      <trkpt lat="48.28726" lon="6.75908">
        <ele>461.57</ele>
        <time>2018-03-29T10:01:13Z</time>
      </trkpt>
      <trkpt lat="48.28718" lon="6.75914">
        <ele>461.57</ele>
        <time>2018-03-29T10:01:25Z</time>
      </trkpt>
      <trkpt lat="48.28718" lon="6.75915">
        <ele>461.57</ele>
        <time>2018-03-29T10:01:26Z</time>
      </trkpt>
      <trkpt lat="48.2871" lon="6.75949">
        <ele>458.69</ele>
        <time>2018-03-29T10:01:41Z</time>
      </trkpt>
      <trkpt lat="48.2871" lon="6.7596">
        <ele>457.72</ele>
        <time>2018-03-29T10:01:48Z</time>
      </trkpt>
      <trkpt lat="48.28718" lon="6.75976">
        <ele>456.28</ele>
        <time>2018-03-29T10:02:00Z</time>
      </trkpt>
      <trkpt lat="48.2873" lon="6.75985">
        <ele>452.44</ele>
        <time>2018-03-29T10:02:12Z</time>
      </trkpt>
      <trkpt lat="48.2873" lon="6.75985">
        <ele>452.44</ele>
        <time>2018-03-29T10:02:13Z</time>
      </trkpt>
      <trkpt lat="48.28734" lon="6.75986">
        <ele>450.52</ele>
        <time>2018-03-29T10:02:18Z</time>
      </trkpt>
      <trkpt lat="48.2875" lon="6.75983">
        <ele>447.15</ele>
        <time>2018-03-29T10:02:31Z</time>
      </trkpt>
      <trkpt lat="48.28757" lon="6.75984">
        <ele>445.71</ele>
        <time>2018-03-29T10:02:36Z</time>
      </trkpt>
      <trkpt lat="48.28765" lon="6.75985">
        <ele>444.27</ele>
        <time>2018-03-29T10:02:42Z</time>
      </trkpt>
      <trkpt lat="48.28781" lon="6.75989">
        <ele>441.38</ele>
        <time>2018-03-29T10:02:56Z</time>
      </trkpt>
      <trkpt lat="48.28798" lon="6.75991">
        <ele>438.98</ele>
        <time>2018-03-29T10:03:12Z</time>
      </trkpt>
      <trkpt lat="48.28815" lon="6.75991">
        <ele>435.61</ele>
        <time>2018-03-29T10:03:26Z</time>
      </trkpt>
      <trkpt lat="48.28829" lon="6.75986">
        <ele>434.65</ele>
        <time>2018-03-29T10:03:34Z</time>
      </trkpt>
      <trkpt lat="48.28843" lon="6.75972">
        <ele>434.17</ele>
        <time>2018-03-29T10:03:47Z</time>
      </trkpt>
      <trkpt lat="48.28858" lon="6.75956">
        <ele>434.17</ele>
        <time>2018-03-29T10:04:01Z</time>
      </trkpt>
      <trkpt lat="48.28861" lon="6.75952">
        <ele>434.17</ele>
        <time>2018-03-29T10:04:04Z</time>
      </trkpt>
      <trkpt lat="48.28875" lon="6.75936">
        <ele>432.73</ele>
        <time>2018-03-29T10:04:18Z</time>
      </trkpt>
      <trkpt lat="48.28878" lon="6.75931">
        <ele>432.25</ele>
        <time>2018-03-29T10:04:23Z</time>
      </trkpt>
      <trkpt lat="48.28899" lon="6.75919">
        <ele>429.37</ele>
        <time>2018-03-29T10:04:39Z</time>
      </trkpt>
      <trkpt lat="48.2891" lon="6.75915">
        <ele>428.89</ele>
        <time>2018-03-29T10:04:47Z</time>
      </trkpt>
      <trkpt lat="48.28927" lon="6.75908">
        <ele>427.92</ele>
        <time>2018-03-29T10:04:58Z</time>
      </trkpt>
      <trkpt lat="48.28929" lon="6.75909">
        <ele>427.44</ele>
        <time>2018-03-29T10:05:00Z</time>
      </trkpt>
      <trkpt lat="48.28935" lon="6.75906">
        <ele>426.96</ele>
        <time>2018-03-29T10:05:04Z</time>
      </trkpt>
      <trkpt lat="48.28953" lon="6.75909">
        <ele>424.56</ele>
        <time>2018-03-29T10:05:20Z</time>
      </trkpt>
      <trkpt lat="48.28971" lon="6.75913">
        <ele>422.16</ele>
        <time>2018-03-29T10:05:34Z</time>
      </trkpt>
      <trkpt lat="48.28977" lon="6.75914">
        <ele>421.68</ele>
        <time>2018-03-29T10:05:37Z</time>
      </trkpt>
      <trkpt lat="48.29001" lon="6.7591">
        <ele>420.71</ele>
        <time>2018-03-29T10:05:52Z</time>
      </trkpt>
      <trkpt lat="48.29016" lon="6.75909">
        <ele>419.27</ele>
        <time>2018-03-29T10:06:04Z</time>
      </trkpt>
      <trkpt lat="48.29025" lon="6.75905">
        <ele>418.31</ele>
        <time>2018-03-29T10:06:10Z</time>
      </trkpt>
      <trkpt lat="48.29046" lon="6.75893">
        <ele>418.31</ele>
        <time>2018-03-29T10:06:28Z</time>
      </trkpt>
      <trkpt lat="48.29052" lon="6.75889">
        <ele>417.83</ele>
        <time>2018-03-29T10:06:35Z</time>
      </trkpt>
      <trkpt lat="48.29057" lon="6.75883">
        <ele>417.83</ele>
        <time>2018-03-29T10:06:41Z</time>
      </trkpt>
      <trkpt lat="48.29069" lon="6.75876">
        <ele>416.39</ele>
        <time>2018-03-29T10:06:52Z</time>
      </trkpt>
      <trkpt lat="48.29081" lon="6.75866">
        <ele>416.39</ele>
        <time>2018-03-29T10:07:03Z</time>
      </trkpt>
      <trkpt lat="48.29083" lon="6.75863">
        <ele>416.39</ele>
        <time>2018-03-29T10:07:05Z</time>
      </trkpt>
      <trkpt lat="48.29093" lon="6.75846">
        <ele>418.79</ele>
        <time>2018-03-29T10:07:17Z</time>
      </trkpt>
      <trkpt lat="48.2911" lon="6.75821">
        <ele>418.79</ele>
        <time>2018-03-29T10:07:32Z</time>
      </trkpt>
      <trkpt lat="48.29112" lon="6.75818">
        <ele>417.35</ele>
        <time>2018-03-29T10:07:34Z</time>
      </trkpt>
      <trkpt lat="48.29118" lon="6.75813">
        <ele>419.27</ele>
        <time>2018-03-29T10:07:39Z</time>
      </trkpt>
      <trkpt lat="48.29123" lon="6.75808">
        <ele>417.35</ele>
        <time>2018-03-29T10:07:43Z</time>
      </trkpt>
      <trkpt lat="48.29131" lon="6.75793">
        <ele>416.39</ele>
        <time>2018-03-29T10:07:56Z</time>
      </trkpt>
      <trkpt lat="48.29152" lon="6.75785">
        <ele>413.02</ele>
        <time>2018-03-29T10:08:10Z</time>
      </trkpt>
      <trkpt lat="48.29162" lon="6.7578">
        <ele>412.54</ele>
        <time>2018-03-29T10:08:19Z</time>
      </trkpt>
      <trkpt lat="48.29174" lon="6.75764">
        <ele>411.58</ele>
        <time>2018-03-29T10:08:35Z</time>
      </trkpt>
      <trkpt lat="48.29193" lon="6.75752">
        <ele>409.66</ele>
        <time>2018-03-29T10:08:49Z</time>
      </trkpt>
      <trkpt lat="48.29208" lon="6.75748">
        <ele>408.7</ele>
        <time>2018-03-29T10:09:03Z</time>
      </trkpt>
      <trkpt lat="48.29225" lon="6.75751">
        <ele>405.81</ele>
        <time>2018-03-29T10:09:14Z</time>
      </trkpt>
      <trkpt lat="48.29245" lon="6.75756">
        <ele>402.93</ele>
        <time>2018-03-29T10:09:29Z</time>
      </trkpt>
      <trkpt lat="48.29251" lon="6.75762">
        <ele>401.97</ele>
        <time>2018-03-29T10:09:36Z</time>
      </trkpt>
      <trkpt lat="48.29258" lon="6.75766">
        <ele>401.97</ele>
        <time>2018-03-29T10:09:54Z</time>
      </trkpt>
      <trkpt lat="48.29258" lon="6.75766">
        <ele>401.97</ele>
        <time>2018-03-29T10:09:57Z</time>
      </trkpt>
      <trkpt lat="48.29278" lon="6.75773">
        <ele>399.57</ele>
        <time>2018-03-29T10:10:15Z</time>
      </trkpt>
      <trkpt lat="48.29293" lon="6.75775">
        <ele>398.12</ele>
        <time>2018-03-29T10:10:27Z</time>
      </trkpt>
      <trkpt lat="48.29318" lon="6.75773">
        <ele>396.68</ele>
        <time>2018-03-29T10:10:42Z</time>
      </trkpt>
      <trkpt lat="48.29322" lon="6.75777">
        <ele>395.72</ele>
        <time>2018-03-29T10:10:55Z</time>
      </trkpt>
      <trkpt lat="48.29325" lon="6.75777">
        <ele>395.72</ele>
        <time>2018-03-29T10:11:00Z</time>
      </trkpt>
      <trkpt lat="48.2933" lon="6.75776">
        <ele>395.24</ele>
        <time>2018-03-29T10:11:04Z</time>
      </trkpt>
      <trkpt lat="48.29337" lon="6.75773">
        <ele>394.76</ele>
        <time>2018-03-29T10:11:09Z</time>
      </trkpt>
      <trkpt lat="48.29351" lon="6.75764">
        <ele>394.28</ele>
        <time>2018-03-29T10:11:21Z</time>
      </trkpt>
      <trkpt lat="48.29369" lon="6.75754">
        <ele>393.8</ele>
        <time>2018-03-29T10:11:39Z</time>
      </trkpt>
      <trkpt lat="48.29373" lon="6.75756">
        <ele>393.8</ele>
        <time>2018-03-29T10:11:53Z</time>
      </trkpt>
      <trkpt lat="48.29374" lon="6.75755">
        <ele>393.8</ele>
        <time>2018-03-29T10:12:04Z</time>
      </trkpt>
      <trkpt lat="48.2937" lon="6.75725">
        <ele>393.8</ele>
        <time>2018-03-29T10:12:23Z</time>
      </trkpt>
      <trkpt lat="48.29369" lon="6.75711">
        <ele>393.8</ele>
        <time>2018-03-29T10:12:30Z</time>
      </trkpt>
      <trkpt lat="48.29366" lon="6.7568">
        <ele>393.32</ele>
        <time>2018-03-29T10:12:47Z</time>
      </trkpt>
      <trkpt lat="48.29365" lon="6.75673">
        <ele>393.32</ele>
        <time>2018-03-29T10:12:51Z</time>
      </trkpt>
      <trkpt lat="48.29364" lon="6.75669">
        <ele>393.32</ele>
        <time>2018-03-29T10:12:53Z</time>
      </trkpt>
      <trkpt lat="48.29362" lon="6.75652">
        <ele>393.32</ele>
        <time>2018-03-29T10:13:02Z</time>
      </trkpt>
      <trkpt lat="48.29359" lon="6.75632">
        <ele>392.84</ele>
        <time>2018-03-29T10:13:13Z</time>
      </trkpt>
      <trkpt lat="48.29359" lon="6.75603">
        <ele>392.84</ele>
        <time>2018-03-29T10:13:28Z</time>
      </trkpt>
      <trkpt lat="48.29355" lon="6.75578">
        <ele>392.84</ele>
        <time>2018-03-29T10:13:41Z</time>
      </trkpt>
      <trkpt lat="48.2936" lon="6.75572">
        <ele>392.84</ele>
        <time>2018-03-29T10:13:57Z</time>
      </trkpt>
      <trkpt lat="48.29369" lon="6.75559">
        <ele>392.84</ele>
        <time>2018-03-29T10:14:10Z</time>
      </trkpt>
      <trkpt lat="48.29372" lon="6.75554">
        <ele>392.84</ele>
        <time>2018-03-29T10:14:14Z</time>
      </trkpt>
      <trkpt lat="48.29382" lon="6.75535">
        <ele>394.76</ele>
        <time>2018-03-29T10:14:28Z</time>
      </trkpt>
      <trkpt lat="48.29383" lon="6.75528">
        <ele>394.76</ele>
        <time>2018-03-29T10:14:33Z</time>
      </trkpt>
      <trkpt lat="48.29384" lon="6.75523">
        <ele>395.24</ele>
        <time>2018-03-29T10:14:36Z</time>
      </trkpt>
      <trkpt lat="48.29382" lon="6.75511">
        <ele>395.72</ele>
        <time>2018-03-29T10:14:46Z</time>
      </trkpt>
      <trkpt lat="48.29377" lon="6.75501">
        <ele>396.2</ele>
        <time>2018-03-29T10:14:57Z</time>
      </trkpt>
      <trkpt lat="48.29377" lon="6.75495">
        <ele>396.68</ele>
        <time>2018-03-29T10:15:15Z</time>
      </trkpt>
      <trkpt lat="48.29371" lon="6.75489">
        <ele>396.68</ele>
        <time>2018-03-29T10:15:40Z</time>
      </trkpt>
      <trkpt lat="48.29373" lon="6.7549">
        <ele>396.68</ele>
        <time>2018-03-29T10:15:52Z</time>
      </trkpt>
      <trkpt lat="48.29374" lon="6.75489">
        <ele>396.68</ele>
        <time>2018-03-29T10:15:56Z</time>
      </trkpt>
      <trkpt lat="48.29372" lon="6.75472">
        <ele>397.16</ele>
        <time>2018-03-29T10:16:10Z</time>
      </trkpt>
      <trkpt lat="48.29372" lon="6.75467">
        <ele>397.16</ele>
        <time>2018-03-29T10:16:14Z</time>
      </trkpt>
      <trkpt lat="48.2937" lon="6.75459">
        <ele>397.64</ele>
        <time>2018-03-29T10:16:19Z</time>
      </trkpt>
      <trkpt lat="48.29369" lon="6.75448">
        <ele>398.6</ele>
        <time>2018-03-29T10:16:26Z</time>
      </trkpt>
      <trkpt lat="48.29371" lon="6.7544">
        <ele>399.08</ele>
        <time>2018-03-29T10:16:31Z</time>
      </trkpt>
      <trkpt lat="48.29371" lon="6.75411">
        <ele>401.01</ele>
        <time>2018-03-29T10:16:46Z</time>
      </trkpt>
      <trkpt lat="48.29376" lon="6.75389">
        <ele>402.45</ele>
        <time>2018-03-29T10:17:00Z</time>
      </trkpt>
      <trkpt lat="48.29382" lon="6.75374">
        <ele>403.41</ele>
        <time>2018-03-29T10:17:12Z</time>
      </trkpt>
      <trkpt lat="48.2939" lon="6.75359">
        <ele>405.33</ele>
        <time>2018-03-29T10:17:29Z</time>
      </trkpt>
      <trkpt lat="48.29393" lon="6.75351">
        <ele>405.33</ele>
        <time>2018-03-29T10:17:37Z</time>
      </trkpt>
      <trkpt lat="48.29395" lon="6.75334">
        <ele>407.26</ele>
        <time>2018-03-29T10:17:51Z</time>
      </trkpt>
      <trkpt lat="48.29401" lon="6.75306">
        <ele>410.14</ele>
        <time>2018-03-29T10:18:08Z</time>
      </trkpt>
      <trkpt lat="48.29404" lon="6.75297">
        <ele>411.1</ele>
        <time>2018-03-29T10:18:15Z</time>
      </trkpt>
      <trkpt lat="48.29405" lon="6.75285">
        <ele>412.54</ele>
        <time>2018-03-29T10:18:25Z</time>
      </trkpt>
      <trkpt lat="48.29405" lon="6.75274">
        <ele>413.98</ele>
        <time>2018-03-29T10:18:32Z</time>
      </trkpt>
      <trkpt lat="48.29406" lon="6.75269">
        <ele>414.47</ele>
        <time>2018-03-29T10:18:36Z</time>
      </trkpt>
      <trkpt lat="48.29407" lon="6.75264">
        <ele>414.95</ele>
        <time>2018-03-29T10:18:40Z</time>
      </trkpt>
      <trkpt lat="48.2941" lon="6.75246">
        <ele>416.87</ele>
        <time>2018-03-29T10:18:54Z</time>
      </trkpt>
      <trkpt lat="48.29411" lon="6.75237">
        <ele>417.83</ele>
        <time>2018-03-29T10:19:01Z</time>
      </trkpt>
      <trkpt lat="48.29417" lon="6.75219">
        <ele>419.75</ele>
        <time>2018-03-29T10:19:15Z</time>
      </trkpt>
      <trkpt lat="48.29418" lon="6.75208">
        <ele>420.23</ele>
        <time>2018-03-29T10:19:21Z</time>
      </trkpt>
      <trkpt lat="48.29419" lon="6.75198">
        <ele>421.68</ele>
        <time>2018-03-29T10:19:29Z</time>
      </trkpt>
      <trkpt lat="48.29421" lon="6.75171">
        <ele>425.04</ele>
        <time>2018-03-29T10:19:48Z</time>
      </trkpt>
      <trkpt lat="48.29419" lon="6.75145">
        <ele>427.44</ele>
        <time>2018-03-29T10:20:05Z</time>
      </trkpt>
      <trkpt lat="48.2942" lon="6.75131">
        <ele>429.37</ele>
        <time>2018-03-29T10:20:16Z</time>
      </trkpt>
      <trkpt lat="48.29421" lon="6.75128">
        <ele>429.85</ele>
        <time>2018-03-29T10:20:19Z</time>
      </trkpt>
      <trkpt lat="48.29418" lon="6.75106">
        <ele>432.25</ele>
        <time>2018-03-29T10:20:35Z</time>
      </trkpt>
      <trkpt lat="48.29416" lon="6.75091">
        <ele>435.61</ele>
        <time>2018-03-29T10:20:51Z</time>
      </trkpt>
      <trkpt lat="48.29415" lon="6.75071">
        <ele>438.02</ele>
        <time>2018-03-29T10:21:10Z</time>
      </trkpt>
      <trkpt lat="48.29412" lon="6.75051">
        <ele>441.38</ele>
        <time>2018-03-29T10:21:27Z</time>
      </trkpt>
      <trkpt lat="48.29413" lon="6.7503">
        <ele>443.31</ele>
        <time>2018-03-29T10:21:42Z</time>
      </trkpt>
      <trkpt lat="48.29409" lon="6.75022">
        <ele>444.27</ele>
        <time>2018-03-29T10:21:49Z</time>
      </trkpt>
      <trkpt lat="48.29407" lon="6.75004">
        <ele>446.67</ele>
        <time>2018-03-29T10:22:06Z</time>
      </trkpt>
      <trkpt lat="48.29406" lon="6.74991">
        <ele>448.59</ele>
        <time>2018-03-29T10:22:20Z</time>
      </trkpt>
      <trkpt lat="48.29405" lon="6.74984">
        <ele>449.55</ele>
        <time>2018-03-29T10:22:25Z</time>
      </trkpt>
      <trkpt lat="48.29405" lon="6.7498">
        <ele>450.03</ele>
        <time>2018-03-29T10:22:28Z</time>
      </trkpt>
      <trkpt lat="48.29409" lon="6.74959">
        <ele>452.44</ele>
        <time>2018-03-29T10:22:44Z</time>
      </trkpt>
      <trkpt lat="48.2941" lon="6.74942">
        <ele>453.88</ele>
        <time>2018-03-29T10:22:57Z</time>
      </trkpt>
      <trkpt lat="48.2941" lon="6.74923">
        <ele>456.28</ele>
        <time>2018-03-29T10:23:11Z</time>
      </trkpt>
      <trkpt lat="48.29408" lon="6.74902">
        <ele>458.69</ele>
        <time>2018-03-29T10:23:25Z</time>
      </trkpt>
      <trkpt lat="48.29409" lon="6.74888">
        <ele>460.61</ele>
        <time>2018-03-29T10:23:35Z</time>
      </trkpt>
      <trkpt lat="48.29408" lon="6.74869">
        <ele>461.57</ele>
        <time>2018-03-29T10:23:51Z</time>
      </trkpt>
      <trkpt lat="48.29409" lon="6.74853">
        <ele>463.01</ele>
        <time>2018-03-29T10:24:01Z</time>
      </trkpt>
      <trkpt lat="48.294" lon="6.74841">
        <ele>463.49</ele>
        <time>2018-03-29T10:24:17Z</time>
      </trkpt>
      <trkpt lat="48.29399" lon="6.74836">
        <ele>463.49</ele>
        <time>2018-03-29T10:24:21Z</time>
      </trkpt>
      <trkpt lat="48.29402" lon="6.74825">
        <ele>463.97</ele>
        <time>2018-03-29T10:24:29Z</time>
      </trkpt>
      <trkpt lat="48.29405" lon="6.74813">
        <ele>465.9</ele>
        <time>2018-03-29T10:24:41Z</time>
      </trkpt>
      <trkpt lat="48.29405" lon="6.74804">
        <ele>466.38</ele>
        <time>2018-03-29T10:25:05Z</time>
      </trkpt>
      <trkpt lat="48.29405" lon="6.74802">
        <ele>466.38</ele>
        <time>2018-03-29T10:25:07Z</time>
      </trkpt>
      <trkpt lat="48.29406" lon="6.74796">
        <ele>467.34</ele>
        <time>2018-03-29T10:25:11Z</time>
      </trkpt>
      <trkpt lat="48.2941" lon="6.74777">
        <ele>469.74</ele>
        <time>2018-03-29T10:25:26Z</time>
      </trkpt>
      <trkpt lat="48.29416" lon="6.74752">
        <ele>471.18</ele>
        <time>2018-03-29T10:25:41Z</time>
      </trkpt>
      <trkpt lat="48.2942" lon="6.74729">
        <ele>472.14</ele>
        <time>2018-03-29T10:25:55Z</time>
      </trkpt>
      <trkpt lat="48.29425" lon="6.74708">
        <ele>473.11</ele>
        <time>2018-03-29T10:26:09Z</time>
      </trkpt>
      <trkpt lat="48.29426" lon="6.74702">
        <ele>473.59</ele>
        <time>2018-03-29T10:26:13Z</time>
      </trkpt>
      <trkpt lat="48.29431" lon="6.74682">
        <ele>473.59</ele>
        <time>2018-03-29T10:26:26Z</time>
      </trkpt>
      <trkpt lat="48.29433" lon="6.74677">
        <ele>473.59</ele>
        <time>2018-03-29T10:26:30Z</time>
      </trkpt>
      <trkpt lat="48.29438" lon="6.7466">
        <ele>474.55</ele>
        <time>2018-03-29T10:26:46Z</time>
      </trkpt>
      <trkpt lat="48.2944" lon="6.74652">
        <ele>475.03</ele>
        <time>2018-03-29T10:27:11Z</time>
      </trkpt>
      <trkpt lat="48.29441" lon="6.74649">
        <ele>475.03</ele>
        <time>2018-03-29T10:27:13Z</time>
      </trkpt>
      <trkpt lat="48.2945" lon="6.74638">
        <ele>475.03</ele>
        <time>2018-03-29T10:27:25Z</time>
      </trkpt>
      <trkpt lat="48.29454" lon="6.74634">
        <ele>475.03</ele>
        <time>2018-03-29T10:27:30Z</time>
      </trkpt>
      <trkpt lat="48.29459" lon="6.74626">
        <ele>475.03</ele>
        <time>2018-03-29T10:27:37Z</time>
      </trkpt>
      <trkpt lat="48.29469" lon="6.74608">
        <ele>475.51</ele>
        <time>2018-03-29T10:27:51Z</time>
      </trkpt>
      <trkpt lat="48.29477" lon="6.74591">
        <ele>476.47</ele>
        <time>2018-03-29T10:28:03Z</time>
      </trkpt>
      <trkpt lat="48.29491" lon="6.74561">
        <ele>476.95</ele>
        <time>2018-03-29T10:28:18Z</time>
      </trkpt>
      <trkpt lat="48.29502" lon="6.74532">
        <ele>477.43</ele>
        <time>2018-03-29T10:28:36Z</time>
      </trkpt>
      <trkpt lat="48.2951" lon="6.74507">
        <ele>475.99</ele>
        <time>2018-03-29T10:28:52Z</time>
      </trkpt>
      <trkpt lat="48.29518" lon="6.74491">
        <ele>475.03</ele>
        <time>2018-03-29T10:29:03Z</time>
      </trkpt>
      <trkpt lat="48.29526" lon="6.74471">
        <ele>473.59</ele>
        <time>2018-03-29T10:29:15Z</time>
      </trkpt>
      <trkpt lat="48.29541" lon="6.74446">
        <ele>472.14</ele>
        <time>2018-03-29T10:29:35Z</time>
      </trkpt>
      <trkpt lat="48.29555" lon="6.74419">
        <ele>470.7</ele>
        <time>2018-03-29T10:29:52Z</time>
      </trkpt>
      <trkpt lat="48.2956" lon="6.74418">
        <ele>470.7</ele>
        <time>2018-03-29T10:29:57Z</time>
      </trkpt>
      <trkpt lat="48.29575" lon="6.74425">
        <ele>472.14</ele>
        <time>2018-03-29T10:30:09Z</time>
      </trkpt>
      <trkpt lat="48.29591" lon="6.74448">
        <ele>473.59</ele>
        <time>2018-03-29T10:30:26Z</time>
      </trkpt>
      <trkpt lat="48.29593" lon="6.74454">
        <ele>473.59</ele>
        <time>2018-03-29T10:30:29Z</time>
      </trkpt>
      <trkpt lat="48.29611" lon="6.74468">
        <ele>475.03</ele>
        <time>2018-03-29T10:30:43Z</time>
      </trkpt>
      <trkpt lat="48.29613" lon="6.74468">
        <ele>475.03</ele>
        <time>2018-03-29T10:30:45Z</time>
      </trkpt>
      <trkpt lat="48.29614" lon="6.74467">
        <ele>475.03</ele>
        <time>2018-03-29T10:30:47Z</time>
      </trkpt>
      <trkpt lat="48.29616" lon="6.74467">
        <ele>475.03</ele>
        <time>2018-03-29T10:30:48Z</time>
      </trkpt>
      <trkpt lat="48.29634" lon="6.74472">
        <ele>475.03</ele>
        <time>2018-03-29T10:31:02Z</time>
      </trkpt>
      <trkpt lat="48.29649" lon="6.74475">
        <ele>475.03</ele>
        <time>2018-03-29T10:31:14Z</time>
      </trkpt>
      <trkpt lat="48.29664" lon="6.74476">
        <ele>475.03</ele>
        <time>2018-03-29T10:31:28Z</time>
      </trkpt>
      <trkpt lat="48.29682" lon="6.74481">
        <ele>475.99</ele>
        <time>2018-03-29T10:31:42Z</time>
      </trkpt>
      <trkpt lat="48.29697" lon="6.74484">
        <ele>475.99</ele>
        <time>2018-03-29T10:31:55Z</time>
      </trkpt>
      <trkpt lat="48.29719" lon="6.74491">
        <ele>475.99</ele>
        <time>2018-03-29T10:32:12Z</time>
      </trkpt>
      <trkpt lat="48.29736" lon="6.74498">
        <ele>475.99</ele>
        <time>2018-03-29T10:32:26Z</time>
      </trkpt>
      <trkpt lat="48.29738" lon="6.74498">
        <ele>475.99</ele>
        <time>2018-03-29T10:32:28Z</time>
      </trkpt>
      <trkpt lat="48.2974" lon="6.74498">
        <ele>475.99</ele>
        <time>2018-03-29T10:32:29Z</time>
      </trkpt>
      <trkpt lat="48.2975" lon="6.74496">
        <ele>475.03</ele>
        <time>2018-03-29T10:32:39Z</time>
      </trkpt>
      <trkpt lat="48.29752" lon="6.74496">
        <ele>475.03</ele>
        <time>2018-03-29T10:32:40Z</time>
      </trkpt>
      <trkpt lat="48.29754" lon="6.74496">
        <ele>475.03</ele>
        <time>2018-03-29T10:32:41Z</time>
      </trkpt>
      <trkpt lat="48.2977" lon="6.74495">
        <ele>474.07</ele>
        <time>2018-03-29T10:32:52Z</time>
      </trkpt>
      <trkpt lat="48.29794" lon="6.74492">
        <ele>474.07</ele>
        <time>2018-03-29T10:33:05Z</time>
      </trkpt>
      <trkpt lat="48.29802" lon="6.74496">
        <ele>473.59</ele>
        <time>2018-03-29T10:33:18Z</time>
      </trkpt>
      <trkpt lat="48.29807" lon="6.74501">
        <ele>474.07</ele>
        <time>2018-03-29T10:33:27Z</time>
      </trkpt>
      <trkpt lat="48.29808" lon="6.74502">
        <ele>474.07</ele>
        <time>2018-03-29T10:33:28Z</time>
      </trkpt>
      <trkpt lat="48.29809" lon="6.74503">
        <ele>474.07</ele>
        <time>2018-03-29T10:33:29Z</time>
      </trkpt>
      <trkpt lat="48.29817" lon="6.74516">
        <ele>474.07</ele>
        <time>2018-03-29T10:33:39Z</time>
      </trkpt>
      <trkpt lat="48.29818" lon="6.74517">
        <ele>474.07</ele>
        <time>2018-03-29T10:33:40Z</time>
      </trkpt>
      <trkpt lat="48.29833" lon="6.74534">
        <ele>474.07</ele>
        <time>2018-03-29T10:33:54Z</time>
      </trkpt>
      <trkpt lat="48.29847" lon="6.74559">
        <ele>475.99</ele>
        <time>2018-03-29T10:34:08Z</time>
      </trkpt>
      <trkpt lat="48.29858" lon="6.74581">
        <ele>476.47</ele>
        <time>2018-03-29T10:34:22Z</time>
      </trkpt>
      <trkpt lat="48.29879" lon="6.74611">
        <ele>476.95</ele>
        <time>2018-03-29T10:34:45Z</time>
      </trkpt>
      <trkpt lat="48.29893" lon="6.74627">
        <ele>476.95</ele>
        <time>2018-03-29T10:34:58Z</time>
      </trkpt>
      <trkpt lat="48.29894" lon="6.74629">
        <ele>476.95</ele>
        <time>2018-03-29T10:34:59Z</time>
      </trkpt>
      <trkpt lat="48.29918" lon="6.7465">
        <ele>476.95</ele>
        <time>2018-03-29T10:35:19Z</time>
      </trkpt>
      <trkpt lat="48.29937" lon="6.74665">
        <ele>476.95</ele>
        <time>2018-03-29T10:35:38Z</time>
      </trkpt>
      <trkpt lat="48.29958" lon="6.74685">
        <ele>476.95</ele>
        <time>2018-03-29T10:35:57Z</time>
      </trkpt>
      <trkpt lat="48.29967" lon="6.74693">
        <ele>475.51</ele>
        <time>2018-03-29T10:36:04Z</time>
      </trkpt>
      <trkpt lat="48.29989" lon="6.74711">
        <ele>475.51</ele>
        <time>2018-03-29T10:36:23Z</time>
      </trkpt>
      <trkpt lat="48.30001" lon="6.7472">
        <ele>475.51</ele>
        <time>2018-03-29T10:36:34Z</time>
      </trkpt>
      <trkpt lat="48.30002" lon="6.74721">
        <ele>475.51</ele>
        <time>2018-03-29T10:36:35Z</time>
      </trkpt>
      <trkpt lat="48.30029" lon="6.74739">
        <ele>475.51</ele>
        <time>2018-03-29T10:36:54Z</time>
      </trkpt>
      <trkpt lat="48.30051" lon="6.74758">
        <ele>475.51</ele>
        <time>2018-03-29T10:37:13Z</time>
      </trkpt>
      <trkpt lat="48.30071" lon="6.74781">
        <ele>475.51</ele>
        <time>2018-03-29T10:37:32Z</time>
      </trkpt>
      <trkpt lat="48.30085" lon="6.74801">
        <ele>476.47</ele>
        <time>2018-03-29T10:37:46Z</time>
      </trkpt>
      <trkpt lat="48.30102" lon="6.74827">
        <ele>476.47</ele>
        <time>2018-03-29T10:38:04Z</time>
      </trkpt>
      <trkpt lat="48.3012" lon="6.74848">
        <ele>476.47</ele>
        <time>2018-03-29T10:38:21Z</time>
      </trkpt>
      <trkpt lat="48.30133" lon="6.74868">
        <ele>476.47</ele>
        <time>2018-03-29T10:38:34Z</time>
      </trkpt>
      <trkpt lat="48.30151" lon="6.74908">
        <ele>476.47</ele>
        <time>2018-03-29T10:38:54Z</time>
      </trkpt>
      <trkpt lat="48.30158" lon="6.74933">
        <ele>475.03</ele>
        <time>2018-03-29T10:39:07Z</time>
      </trkpt>
      <trkpt lat="48.30168" lon="6.74963">
        <ele>475.03</ele>
        <time>2018-03-29T10:39:24Z</time>
      </trkpt>
      <trkpt lat="48.30179" lon="6.74992">
        <ele>475.03</ele>
        <time>2018-03-29T10:39:40Z</time>
      </trkpt>
      <trkpt lat="48.30181" lon="6.74995">
        <ele>475.03</ele>
        <time>2018-03-29T10:39:42Z</time>
      </trkpt>
      <trkpt lat="48.30196" lon="6.75029">
        <ele>475.03</ele>
        <time>2018-03-29T10:40:01Z</time>
      </trkpt>
      <trkpt lat="48.3021" lon="6.75054">
        <ele>475.99</ele>
        <time>2018-03-29T10:40:20Z</time>
      </trkpt>
      <trkpt lat="48.30224" lon="6.75063">
        <ele>476.47</ele>
        <time>2018-03-29T10:40:37Z</time>
      </trkpt>
      <trkpt lat="48.30239" lon="6.7507">
        <ele>476.47</ele>
        <time>2018-03-29T10:40:57Z</time>
      </trkpt>
      <trkpt lat="48.30261" lon="6.75082">
        <ele>475.99</ele>
        <time>2018-03-29T10:41:19Z</time>
      </trkpt>
      <trkpt lat="48.3027" lon="6.75086">
        <ele>474.55</ele>
        <time>2018-03-29T10:41:27Z</time>
      </trkpt>
      <trkpt lat="48.30298" lon="6.75101">
        <ele>474.07</ele>
        <time>2018-03-29T10:41:47Z</time>
      </trkpt>
      <trkpt lat="48.30323" lon="6.75115">
        <ele>473.59</ele>
        <time>2018-03-29T10:42:06Z</time>
      </trkpt>
      <trkpt lat="48.30342" lon="6.75136">
        <ele>472.14</ele>
        <time>2018-03-29T10:42:23Z</time>
      </trkpt>
      <trkpt lat="48.30365" lon="6.75153">
        <ele>469.74</ele>
        <time>2018-03-29T10:42:44Z</time>
      </trkpt>
      <trkpt lat="48.30381" lon="6.7517">
        <ele>467.82</ele>
        <time>2018-03-29T10:43:01Z</time>
      </trkpt>
      <trkpt lat="48.30404" lon="6.75183">
        <ele>465.9</ele>
        <time>2018-03-29T10:43:20Z</time>
      </trkpt>
      <trkpt lat="48.30435" lon="6.75185">
        <ele>464.45</ele>
        <time>2018-03-29T10:43:39Z</time>
      </trkpt>
      <trkpt lat="48.30465" lon="6.75184">
        <ele>462.05</ele>
        <time>2018-03-29T10:44:00Z</time>
      </trkpt>
      <trkpt lat="48.30486" lon="6.75187">
        <ele>459.65</ele>
        <time>2018-03-29T10:44:19Z</time>
      </trkpt>
      <trkpt lat="48.30512" lon="6.75179">
        <ele>458.69</ele>
        <time>2018-03-29T10:44:40Z</time>
      </trkpt>
      <trkpt lat="48.30533" lon="6.75178">
        <ele>457.72</ele>
        <time>2018-03-29T10:45:00Z</time>
      </trkpt>
      <trkpt lat="48.30555" lon="6.75167">
        <ele>457.24</ele>
        <time>2018-03-29T10:45:15Z</time>
      </trkpt>
      <trkpt lat="48.30576" lon="6.75164">
        <ele>456.28</ele>
        <time>2018-03-29T10:45:34Z</time>
      </trkpt>
      <trkpt lat="48.30587" lon="6.75171">
        <ele>456.28</ele>
        <time>2018-03-29T10:45:51Z</time>
      </trkpt>
      <trkpt lat="48.30594" lon="6.75167">
        <ele>456.28</ele>
        <time>2018-03-29T10:46:06Z</time>
      </trkpt>
      <trkpt lat="48.30609" lon="6.75163">
        <ele>456.28</ele>
        <time>2018-03-29T10:46:21Z</time>
      </trkpt>
      <trkpt lat="48.30612" lon="6.75166">
        <ele>457.24</ele>
        <time>2018-03-29T10:46:41Z</time>
      </trkpt>
      <trkpt lat="48.30615" lon="6.75169">
        <ele>457.24</ele>
        <time>2018-03-29T10:47:02Z</time>
      </trkpt>
      <trkpt lat="48.30619" lon="6.75172">
        <ele>457.24</ele>
        <time>2018-03-29T10:47:26Z</time>
      </trkpt>
      <trkpt lat="48.3062" lon="6.75178">
        <ele>457.72</ele>
        <time>2018-03-29T10:47:53Z</time>
      </trkpt>
      <trkpt lat="48.3062" lon="6.75182">
        <ele>457.72</ele>
        <time>2018-03-29T10:48:18Z</time>
      </trkpt>
      <trkpt lat="48.30618" lon="6.75169">
        <ele>457.72</ele>
        <time>2018-03-29T10:48:32Z</time>
      </trkpt>
      <trkpt lat="48.30614" lon="6.7517">
        <ele>457.72</ele>
        <time>2018-03-29T10:49:01Z</time>
      </trkpt>
      <trkpt lat="48.30618" lon="6.75169">
        <ele>458.21</ele>
        <time>2018-03-29T10:49:32Z</time>
      </trkpt>
      <trkpt lat="48.30621" lon="6.75175">
        <ele>458.21</ele>
        <time>2018-03-29T10:50:10Z</time>
      </trkpt>
      <trkpt lat="48.30618" lon="6.7517">
        <ele>458.69</ele>
        <time>2018-03-29T10:50:38Z</time>
      </trkpt>
      <trkpt lat="48.30616" lon="6.75164">
        <ele>458.69</ele>
        <time>2018-03-29T10:51:11Z</time>
      </trkpt>
      <trkpt lat="48.30619" lon="6.75164">
        <ele>458.69</ele>
        <time>2018-03-29T10:51:38Z</time>
      </trkpt>
      <trkpt lat="48.30619" lon="6.75163">
        <ele>459.17</ele>
        <time>2018-03-29T10:51:57Z</time>
      </trkpt>
      <trkpt lat="48.30617" lon="6.75164">
        <ele>459.17</ele>
        <time>2018-03-29T10:52:17Z</time>
      </trkpt>
      <trkpt lat="48.30616" lon="6.75165">
        <ele>459.17</ele>
        <time>2018-03-29T10:52:43Z</time>
      </trkpt>
      <trkpt lat="48.30616" lon="6.75167">
        <ele>459.65</ele>
        <time>2018-03-29T10:53:06Z</time>
      </trkpt>
      <trkpt lat="48.30618" lon="6.75166">
        <ele>459.65</ele>
        <time>2018-03-29T10:53:30Z</time>
      </trkpt>
      <trkpt lat="48.30618" lon="6.75166">
        <ele>459.65</ele>
        <time>2018-03-29T10:53:51Z</time>
      </trkpt>
      <trkpt lat="48.30616" lon="6.75166">
        <ele>459.65</ele>
        <time>2018-03-29T10:54:02Z</time>
      </trkpt>
      <trkpt lat="48.30609" lon="6.75157">
        <ele>459.65</ele>
        <time>2018-03-29T10:54:14Z</time>
      </trkpt>
      <trkpt lat="48.30609" lon="6.75156">
        <ele>459.65</ele>
        <time>2018-03-29T10:54:15Z</time>
      </trkpt>
      <trkpt lat="48.30609" lon="6.75149">
        <ele>459.65</ele>
        <time>2018-03-29T10:54:18Z</time>
      </trkpt>
      <trkpt lat="48.30611" lon="6.75141">
        <ele>459.65</ele>
        <time>2018-03-29T10:54:24Z</time>
      </trkpt>
      <trkpt lat="48.30619" lon="6.75128">
        <ele>459.65</ele>
        <time>2018-03-29T10:54:34Z</time>
      </trkpt>
      <trkpt lat="48.30622" lon="6.75108">
        <ele>458.69</ele>
        <time>2018-03-29T10:54:49Z</time>
      </trkpt>
      <trkpt lat="48.30634" lon="6.75087">
        <ele>457.72</ele>
        <time>2018-03-29T10:55:07Z</time>
      </trkpt>
      <trkpt lat="48.30643" lon="6.75064">
        <ele>457.72</ele>
        <time>2018-03-29T10:55:21Z</time>
      </trkpt>
      <trkpt lat="48.30651" lon="6.75037">
        <ele>457.72</ele>
        <time>2018-03-29T10:55:35Z</time>
      </trkpt>
      <trkpt lat="48.30657" lon="6.75008">
        <ele>459.17</ele>
        <time>2018-03-29T10:55:51Z</time>
      </trkpt>
      <trkpt lat="48.30666" lon="6.74991">
        <ele>459.17</ele>
        <time>2018-03-29T10:56:02Z</time>
      </trkpt>
      <trkpt lat="48.30674" lon="6.7497">
        <ele>459.17</ele>
        <time>2018-03-29T10:56:19Z</time>
      </trkpt>
      <trkpt lat="48.30679" lon="6.74955">
        <ele>459.65</ele>
        <time>2018-03-29T10:56:27Z</time>
      </trkpt>
      <trkpt lat="48.30681" lon="6.74947">
        <ele>459.65</ele>
        <time>2018-03-29T10:56:31Z</time>
      </trkpt>
      <trkpt lat="48.30686" lon="6.74919">
        <ele>459.65</ele>
        <time>2018-03-29T10:56:47Z</time>
      </trkpt>
      <trkpt lat="48.3069" lon="6.74911">
        <ele>459.65</ele>
        <time>2018-03-29T10:56:52Z</time>
      </trkpt>
      <trkpt lat="48.30704" lon="6.74882">
        <ele>460.61</ele>
        <time>2018-03-29T10:57:09Z</time>
      </trkpt>
      <trkpt lat="48.30713" lon="6.74884">
        <ele>461.09</ele>
        <time>2018-03-29T10:57:25Z</time>
      </trkpt>
      <trkpt lat="48.30716" lon="6.74892">
        <ele>461.09</ele>
        <time>2018-03-29T10:57:31Z</time>
      </trkpt>
      <trkpt lat="48.30729" lon="6.74911">
        <ele>461.57</ele>
        <time>2018-03-29T10:57:48Z</time>
      </trkpt>
      <trkpt lat="48.30742" lon="6.74931">
        <ele>462.05</ele>
        <time>2018-03-29T10:58:03Z</time>
      </trkpt>
      <trkpt lat="48.30746" lon="6.74936">
        <ele>462.05</ele>
        <time>2018-03-29T10:58:08Z</time>
      </trkpt>
      <trkpt lat="48.30759" lon="6.74951">
        <ele>462.05</ele>
        <time>2018-03-29T10:58:22Z</time>
      </trkpt>
      <trkpt lat="48.30774" lon="6.74974">
        <ele>462.53</ele>
        <time>2018-03-29T10:58:37Z</time>
      </trkpt>
      <trkpt lat="48.30774" lon="6.74975">
        <ele>462.53</ele>
        <time>2018-03-29T10:58:38Z</time>
      </trkpt>
      <trkpt lat="48.30788" lon="6.74989">
        <ele>462.53</ele>
        <time>2018-03-29T10:58:53Z</time>
      </trkpt>
      <trkpt lat="48.30805" lon="6.74998">
        <ele>463.49</ele>
        <time>2018-03-29T10:59:06Z</time>
      </trkpt>
      <trkpt lat="48.30818" lon="6.75002">
        <ele>463.97</ele>
        <time>2018-03-29T10:59:20Z</time>
      </trkpt>
      <trkpt lat="48.30836" lon="6.75008">
        <ele>463.97</ele>
        <time>2018-03-29T10:59:34Z</time>
      </trkpt>
      <trkpt lat="48.30849" lon="6.75015">
        <ele>463.97</ele>
        <time>2018-03-29T10:59:46Z</time>
      </trkpt>
      <trkpt lat="48.30869" lon="6.75028">
        <ele>464.45</ele>
        <time>2018-03-29T10:59:59Z</time>
      </trkpt>
      <trkpt lat="48.30881" lon="6.75033">
        <ele>463.97</ele>
        <time>2018-03-29T11:00:12Z</time>
      </trkpt>
      <trkpt lat="48.30891" lon="6.75041">
        <ele>463.97</ele>
        <time>2018-03-29T11:00:24Z</time>
      </trkpt>
      <trkpt lat="48.30906" lon="6.75051">
        <ele>463.97</ele>
        <time>2018-03-29T11:00:37Z</time>
      </trkpt>
      <trkpt lat="48.30918" lon="6.75063">
        <ele>463.49</ele>
        <time>2018-03-29T11:00:49Z</time>
      </trkpt>
      <trkpt lat="48.30925" lon="6.75066">
        <ele>463.49</ele>
        <time>2018-03-29T11:00:56Z</time>
      </trkpt>
      <trkpt lat="48.30941" lon="6.75074">
        <ele>463.97</ele>
        <time>2018-03-29T11:01:08Z</time>
      </trkpt>
      <trkpt lat="48.30951" lon="6.75078">
        <ele>463.97</ele>
        <time>2018-03-29T11:01:16Z</time>
      </trkpt>
      <trkpt lat="48.30968" lon="6.75086">
        <ele>463.97</ele>
        <time>2018-03-29T11:01:31Z</time>
      </trkpt>
      <trkpt lat="48.30982" lon="6.751">
        <ele>463.97</ele>
        <time>2018-03-29T11:01:42Z</time>
      </trkpt>
      <trkpt lat="48.30984" lon="6.75104">
        <ele>463.97</ele>
        <time>2018-03-29T11:01:44Z</time>
      </trkpt>
      <trkpt lat="48.30995" lon="6.75115">
        <ele>463.49</ele>
        <time>2018-03-29T11:01:55Z</time>
      </trkpt>
      <trkpt lat="48.31009" lon="6.75123">
        <ele>463.97</ele>
        <time>2018-03-29T11:02:10Z</time>
      </trkpt>
      <trkpt lat="48.31022" lon="6.75127">
        <ele>465.42</ele>
        <time>2018-03-29T11:02:23Z</time>
      </trkpt>
      <trkpt lat="48.31035" lon="6.75132">
        <ele>465.42</ele>
        <time>2018-03-29T11:02:35Z</time>
      </trkpt>
      <trkpt lat="48.31042" lon="6.75138">
        <ele>465.9</ele>
        <time>2018-03-29T11:02:46Z</time>
      </trkpt>
      <trkpt lat="48.31044" lon="6.75139">
        <ele>465.9</ele>
        <time>2018-03-29T11:02:47Z</time>
      </trkpt>
      <trkpt lat="48.31057" lon="6.75141">
        <ele>466.38</ele>
        <time>2018-03-29T11:02:58Z</time>
      </trkpt>
      <trkpt lat="48.31073" lon="6.75142">
        <ele>466.38</ele>
        <time>2018-03-29T11:03:11Z</time>
      </trkpt>
      <trkpt lat="48.31088" lon="6.75136">
        <ele>466.38</ele>
        <time>2018-03-29T11:03:26Z</time>
      </trkpt>
      <trkpt lat="48.31098" lon="6.75129">
        <ele>464.45</ele>
        <time>2018-03-29T11:03:38Z</time>
      </trkpt>
      <trkpt lat="48.31099" lon="6.75128">
        <ele>464.45</ele>
        <time>2018-03-29T11:03:39Z</time>
      </trkpt>
      <trkpt lat="48.31104" lon="6.75117">
        <ele>463.49</ele>
        <time>2018-03-29T11:03:55Z</time>
      </trkpt>
      <trkpt lat="48.31105" lon="6.75114">
        <ele>463.49</ele>
        <time>2018-03-29T11:03:58Z</time>
      </trkpt>
      <trkpt lat="48.31126" lon="6.75093">
        <ele>462.05</ele>
        <time>2018-03-29T11:04:16Z</time>
      </trkpt>
      <trkpt lat="48.31133" lon="6.75082">
        <ele>462.05</ele>
        <time>2018-03-29T11:04:23Z</time>
      </trkpt>
      <trkpt lat="48.31149" lon="6.75056">
        <ele>461.57</ele>
        <time>2018-03-29T11:04:43Z</time>
      </trkpt>
      <trkpt lat="48.31165" lon="6.75032">
        <ele>461.09</ele>
        <time>2018-03-29T11:05:01Z</time>
      </trkpt>
      <trkpt lat="48.31173" lon="6.75013">
        <ele>461.09</ele>
        <time>2018-03-29T11:05:13Z</time>
      </trkpt>
      <trkpt lat="48.31192" lon="6.75">
        <ele>460.61</ele>
        <time>2018-03-29T11:05:34Z</time>
      </trkpt>
      <trkpt lat="48.31213" lon="6.75004">
        <ele>461.57</ele>
        <time>2018-03-29T11:05:49Z</time>
      </trkpt>
      <trkpt lat="48.31224" lon="6.75007">
        <ele>461.57</ele>
        <time>2018-03-29T11:05:57Z</time>
      </trkpt>
      <trkpt lat="48.31233" lon="6.75009">
        <ele>461.57</ele>
        <time>2018-03-29T11:06:01Z</time>
      </trkpt>
      <trkpt lat="48.31242" lon="6.75019">
        <ele>461.57</ele>
        <time>2018-03-29T11:06:08Z</time>
      </trkpt>
      <trkpt lat="48.31267" lon="6.75034">
        <ele>461.09</ele>
        <time>2018-03-29T11:06:27Z</time>
      </trkpt>
      <trkpt lat="48.31288" lon="6.75057">
        <ele>461.09</ele>
        <time>2018-03-29T11:06:44Z</time>
      </trkpt>
      <trkpt lat="48.31291" lon="6.75079">
        <ele>461.57</ele>
        <time>2018-03-29T11:07:00Z</time>
      </trkpt>
      <trkpt lat="48.31284" lon="6.7509">
        <ele>460.61</ele>
        <time>2018-03-29T11:07:17Z</time>
      </trkpt>
      <trkpt lat="48.31263" lon="6.75097">
        <ele>457.24</ele>
        <time>2018-03-29T11:07:38Z</time>
      </trkpt>
      <trkpt lat="48.31241" lon="6.75111">
        <ele>454.36</ele>
        <time>2018-03-29T11:07:58Z</time>
      </trkpt>
      <trkpt lat="48.31227" lon="6.75121">
        <ele>452.44</ele>
        <time>2018-03-29T11:08:20Z</time>
      </trkpt>
      <trkpt lat="48.31228" lon="6.75117">
        <ele>453.4</ele>
        <time>2018-03-29T11:08:40Z</time>
      </trkpt>
      <trkpt lat="48.31232" lon="6.75109">
        <ele>456.28</ele>
        <time>2018-03-29T11:08:56Z</time>
      </trkpt>
      <trkpt lat="48.31244" lon="6.75098">
        <ele>458.69</ele>
        <time>2018-03-29T11:09:15Z</time>
      </trkpt>
      <trkpt lat="48.31268" lon="6.75095">
        <ele>461.57</ele>
        <time>2018-03-29T11:09:38Z</time>
      </trkpt>
      <trkpt lat="48.3127" lon="6.75094">
        <ele>462.05</ele>
        <time>2018-03-29T11:09:40Z</time>
      </trkpt>
      <trkpt lat="48.31275" lon="6.75094">
        <ele>462.05</ele>
        <time>2018-03-29T11:09:43Z</time>
      </trkpt>
      <trkpt lat="48.31291" lon="6.75097">
        <ele>463.01</ele>
        <time>2018-03-29T11:10:02Z</time>
      </trkpt>
      <trkpt lat="48.3132" lon="6.75103">
        <ele>464.93</ele>
        <time>2018-03-29T11:10:21Z</time>
      </trkpt>
      <trkpt lat="48.31341" lon="6.75113">
        <ele>464.93</ele>
        <time>2018-03-29T11:10:37Z</time>
      </trkpt>
      <trkpt lat="48.31361" lon="6.75118">
        <ele>463.97</ele>
        <time>2018-03-29T11:10:54Z</time>
      </trkpt>
      <trkpt lat="48.31386" lon="6.75111">
        <ele>463.97</ele>
        <time>2018-03-29T11:11:15Z</time>
      </trkpt>
      <trkpt lat="48.31394" lon="6.75107">
        <ele>464.45</ele>
        <time>2018-03-29T11:11:22Z</time>
      </trkpt>
      <trkpt lat="48.31411" lon="6.75085">
        <ele>465.42</ele>
        <time>2018-03-29T11:11:42Z</time>
      </trkpt>
      <trkpt lat="48.31418" lon="6.75071">
        <ele>463.97</ele>
        <time>2018-03-29T11:11:53Z</time>
      </trkpt>
      <trkpt lat="48.31432" lon="6.75036">
        <ele>461.57</ele>
        <time>2018-03-29T11:12:14Z</time>
      </trkpt>
      <trkpt lat="48.31441" lon="6.7501">
        <ele>460.61</ele>
        <time>2018-03-29T11:12:27Z</time>
      </trkpt>
      <trkpt lat="48.3145" lon="6.74986">
        <ele>458.21</ele>
        <time>2018-03-29T11:12:43Z</time>
      </trkpt>
      <trkpt lat="48.31445" lon="6.74958">
        <ele>457.72</ele>
        <time>2018-03-29T11:13:01Z</time>
      </trkpt>
      <trkpt lat="48.31438" lon="6.7492">
        <ele>457.24</ele>
        <time>2018-03-29T11:13:22Z</time>
      </trkpt>
      <trkpt lat="48.3143" lon="6.74888">
        <ele>457.24</ele>
        <time>2018-03-29T11:13:39Z</time>
      </trkpt>
      <trkpt lat="48.31427" lon="6.74878">
        <ele>457.24</ele>
        <time>2018-03-29T11:13:44Z</time>
      </trkpt>
      <trkpt lat="48.3142" lon="6.74863">
        <ele>456.76</ele>
        <time>2018-03-29T11:13:53Z</time>
      </trkpt>
      <trkpt lat="48.31406" lon="6.7483">
        <ele>456.76</ele>
        <time>2018-03-29T11:14:14Z</time>
      </trkpt>
      <trkpt lat="48.31397" lon="6.74795">
        <ele>456.28</ele>
        <time>2018-03-29T11:14:35Z</time>
      </trkpt>
      <trkpt lat="48.31386" lon="6.74765">
        <ele>455.8</ele>
        <time>2018-03-29T11:14:55Z</time>
      </trkpt>
      <trkpt lat="48.31377" lon="6.74728">
        <ele>455.32</ele>
        <time>2018-03-29T11:15:14Z</time>
      </trkpt>
      <trkpt lat="48.31368" lon="6.7469">
        <ele>454.36</ele>
        <time>2018-03-29T11:15:31Z</time>
      </trkpt>
      <trkpt lat="48.31368" lon="6.74674">
        <ele>453.88</ele>
        <time>2018-03-29T11:15:40Z</time>
      </trkpt>
      <trkpt lat="48.3136" lon="6.74635">
        <ele>453.4</ele>
        <time>2018-03-29T11:15:56Z</time>
      </trkpt>
      <trkpt lat="48.31358" lon="6.74603">
        <ele>451.96</ele>
        <time>2018-03-29T11:16:14Z</time>
      </trkpt>
      <trkpt lat="48.31359" lon="6.7459">
        <ele>451.48</ele>
        <time>2018-03-29T11:16:23Z</time>
      </trkpt>
      <trkpt lat="48.31359" lon="6.74555">
        <ele>451</ele>
        <time>2018-03-29T11:16:40Z</time>
      </trkpt>
      <trkpt lat="48.3136" lon="6.74517">
        <ele>450.52</ele>
        <time>2018-03-29T11:16:56Z</time>
      </trkpt>
      <trkpt lat="48.31364" lon="6.74495">
        <ele>450.52</ele>
        <time>2018-03-29T11:17:11Z</time>
      </trkpt>
      <trkpt lat="48.31382" lon="6.74484">
        <ele>450.52</ele>
        <time>2018-03-29T11:17:30Z</time>
      </trkpt>
      <trkpt lat="48.31394" lon="6.74483">
        <ele>451.96</ele>
        <time>2018-03-29T11:17:46Z</time>
      </trkpt>
      <trkpt lat="48.31416" lon="6.74485">
        <ele>452.44</ele>
        <time>2018-03-29T11:18:06Z</time>
      </trkpt>
      <trkpt lat="48.31443" lon="6.74492">
        <ele>452.44</ele>
        <time>2018-03-29T11:18:23Z</time>
      </trkpt>
      <trkpt lat="48.31468" lon="6.74491">
        <ele>452.44</ele>
        <time>2018-03-29T11:18:41Z</time>
      </trkpt>
      <trkpt lat="48.3149" lon="6.74492">
        <ele>452.92</ele>
        <time>2018-03-29T11:19:00Z</time>
      </trkpt>
      <trkpt lat="48.31519" lon="6.74497">
        <ele>453.4</ele>
        <time>2018-03-29T11:19:19Z</time>
      </trkpt>
      <trkpt lat="48.31546" lon="6.74503">
        <ele>453.88</ele>
        <time>2018-03-29T11:19:38Z</time>
      </trkpt>
      <trkpt lat="48.31566" lon="6.74506">
        <ele>454.36</ele>
        <time>2018-03-29T11:19:55Z</time>
      </trkpt>
      <trkpt lat="48.31586" lon="6.745">
        <ele>455.8</ele>
        <time>2018-03-29T11:20:11Z</time>
      </trkpt>
      <trkpt lat="48.31611" lon="6.7449">
        <ele>457.24</ele>
        <time>2018-03-29T11:20:29Z</time>
      </trkpt>
      <trkpt lat="48.31631" lon="6.74479">
        <ele>458.21</ele>
        <time>2018-03-29T11:20:47Z</time>
      </trkpt>
      <trkpt lat="48.3165" lon="6.74476">
        <ele>458.69</ele>
        <time>2018-03-29T11:21:05Z</time>
      </trkpt>
      <trkpt lat="48.31673" lon="6.74479">
        <ele>459.17</ele>
        <time>2018-03-29T11:21:22Z</time>
      </trkpt>
      <trkpt lat="48.31704" lon="6.74482">
        <ele>459.65</ele>
        <time>2018-03-29T11:21:39Z</time>
      </trkpt>
      <trkpt lat="48.31728" lon="6.7448">
        <ele>460.61</ele>
        <time>2018-03-29T11:21:57Z</time>
      </trkpt>
      <trkpt lat="48.31751" lon="6.74477">
        <ele>461.57</ele>
        <time>2018-03-29T11:22:15Z</time>
      </trkpt>
      <trkpt lat="48.3176" lon="6.74473">
        <ele>462.05</ele>
        <time>2018-03-29T11:22:21Z</time>
      </trkpt>
      <trkpt lat="48.31778" lon="6.74458">
        <ele>463.01</ele>
        <time>2018-03-29T11:22:37Z</time>
      </trkpt>
      <trkpt lat="48.31784" lon="6.74448">
        <ele>463.01</ele>
        <time>2018-03-29T11:22:43Z</time>
      </trkpt>
      <trkpt lat="48.31785" lon="6.74425">
        <ele>463.49</ele>
        <time>2018-03-29T11:22:57Z</time>
      </trkpt>
      <trkpt lat="48.31784" lon="6.74419">
        <ele>463.49</ele>
        <time>2018-03-29T11:23:01Z</time>
      </trkpt>
      <trkpt lat="48.31779" lon="6.74404">
        <ele>463.97</ele>
        <time>2018-03-29T11:23:10Z</time>
      </trkpt>
      <trkpt lat="48.31776" lon="6.74385">
        <ele>464.45</ele>
        <time>2018-03-29T11:23:24Z</time>
      </trkpt>
      <trkpt lat="48.31773" lon="6.74354">
        <ele>464.45</ele>
        <time>2018-03-29T11:23:41Z</time>
      </trkpt>
      <trkpt lat="48.31771" lon="6.74328">
        <ele>464.45</ele>
        <time>2018-03-29T11:23:55Z</time>
      </trkpt>
      <trkpt lat="48.31767" lon="6.74298">
        <ele>464.45</ele>
        <time>2018-03-29T11:24:12Z</time>
      </trkpt>
      <trkpt lat="48.31765" lon="6.74268">
        <ele>463.49</ele>
        <time>2018-03-29T11:24:32Z</time>
      </trkpt>
      <trkpt lat="48.31761" lon="6.7423">
        <ele>463.01</ele>
        <time>2018-03-29T11:24:49Z</time>
      </trkpt>
      <trkpt lat="48.31761" lon="6.74219">
        <ele>463.01</ele>
        <time>2018-03-29T11:24:52Z</time>
      </trkpt>
      <trkpt lat="48.31764" lon="6.74187">
        <ele>463.01</ele>
        <time>2018-03-29T11:25:07Z</time>
      </trkpt>
      <trkpt lat="48.31769" lon="6.74157">
        <ele>463.01</ele>
        <time>2018-03-29T11:25:24Z</time>
      </trkpt>
      <trkpt lat="48.3177" lon="6.74155">
        <ele>463.01</ele>
        <time>2018-03-29T11:25:25Z</time>
      </trkpt>
      <trkpt lat="48.31784" lon="6.74128">
        <ele>463.01</ele>
        <time>2018-03-29T11:25:44Z</time>
      </trkpt>
      <trkpt lat="48.318" lon="6.74109">
        <ele>461.09</ele>
        <time>2018-03-29T11:25:59Z</time>
      </trkpt>
      <trkpt lat="48.31817" lon="6.74089">
        <ele>460.61</ele>
        <time>2018-03-29T11:26:17Z</time>
      </trkpt>
      <trkpt lat="48.31833" lon="6.74077">
        <ele>459.65</ele>
        <time>2018-03-29T11:26:35Z</time>
      </trkpt>
      <trkpt lat="48.31837" lon="6.7407">
        <ele>459.65</ele>
        <time>2018-03-29T11:26:46Z</time>
      </trkpt>
      <trkpt lat="48.3185" lon="6.7405">
        <ele>458.21</ele>
        <time>2018-03-29T11:27:02Z</time>
      </trkpt>
      <trkpt lat="48.31853" lon="6.74022">
        <ele>457.24</ele>
        <time>2018-03-29T11:27:18Z</time>
      </trkpt>
      <trkpt lat="48.31852" lon="6.7402">
        <ele>457.24</ele>
        <time>2018-03-29T11:27:19Z</time>
      </trkpt>
      <trkpt lat="48.31851" lon="6.7401">
        <ele>457.24</ele>
        <time>2018-03-29T11:27:25Z</time>
      </trkpt>
      <trkpt lat="48.31847" lon="6.73985">
        <ele>456.76</ele>
        <time>2018-03-29T11:27:43Z</time>
      </trkpt>
      <trkpt lat="48.31841" lon="6.73972">
        <ele>456.76</ele>
        <time>2018-03-29T11:27:51Z</time>
      </trkpt>
      <trkpt lat="48.31824" lon="6.73946">
        <ele>455.8</ele>
        <time>2018-03-29T11:28:08Z</time>
      </trkpt>
      <trkpt lat="48.31823" lon="6.73945">
        <ele>455.8</ele>
        <time>2018-03-29T11:28:09Z</time>
      </trkpt>
      <trkpt lat="48.31811" lon="6.73928">
        <ele>456.28</ele>
        <time>2018-03-29T11:28:20Z</time>
      </trkpt>
      <trkpt lat="48.31796" lon="6.73904">
        <ele>456.28</ele>
        <time>2018-03-29T11:28:38Z</time>
      </trkpt>
      <trkpt lat="48.31779" lon="6.73894">
        <ele>456.28</ele>
        <time>2018-03-29T11:28:53Z</time>
      </trkpt>
      <trkpt lat="48.31759" lon="6.73892">
        <ele>457.24</ele>
        <time>2018-03-29T11:29:10Z</time>
      </trkpt>
      <trkpt lat="48.31736" lon="6.73908">
        <ele>458.21</ele>
        <time>2018-03-29T11:29:27Z</time>
      </trkpt>
      <trkpt lat="48.31733" lon="6.73911">
        <ele>458.21</ele>
        <time>2018-03-29T11:29:30Z</time>
      </trkpt>
      <trkpt lat="48.31711" lon="6.73932">
        <ele>459.17</ele>
        <time>2018-03-29T11:29:47Z</time>
      </trkpt>
      <trkpt lat="48.31694" lon="6.73958">
        <ele>459.65</ele>
        <time>2018-03-29T11:30:04Z</time>
      </trkpt>
      <trkpt lat="48.31673" lon="6.73982">
        <ele>459.65</ele>
        <time>2018-03-29T11:30:22Z</time>
      </trkpt>
      <trkpt lat="48.31654" lon="6.73999">
        <ele>460.13</ele>
        <time>2018-03-29T11:30:39Z</time>
      </trkpt>
      <trkpt lat="48.3163" lon="6.74018">
        <ele>460.13</ele>
        <time>2018-03-29T11:31:02Z</time>
      </trkpt>
      <trkpt lat="48.31607" lon="6.74032">
        <ele>461.09</ele>
        <time>2018-03-29T11:31:21Z</time>
      </trkpt>
      <trkpt lat="48.31595" lon="6.7404">
        <ele>461.57</ele>
        <time>2018-03-29T11:31:32Z</time>
      </trkpt>
      <trkpt lat="48.31576" lon="6.74052">
        <ele>462.05</ele>
        <time>2018-03-29T11:31:51Z</time>
      </trkpt>
      <trkpt lat="48.31553" lon="6.74058">
        <ele>461.09</ele>
        <time>2018-03-29T11:32:07Z</time>
      </trkpt>
      <trkpt lat="48.31538" lon="6.74058">
        <ele>461.09</ele>
        <time>2018-03-29T11:32:17Z</time>
      </trkpt>
      <trkpt lat="48.31503" lon="6.74053">
        <ele>461.09</ele>
        <time>2018-03-29T11:32:30Z</time>
      </trkpt>
      <trkpt lat="48.31481" lon="6.74031">
        <ele>460.61</ele>
        <time>2018-03-29T11:32:46Z</time>
      </trkpt>
      <trkpt lat="48.3147" lon="6.74014">
        <ele>460.61</ele>
        <time>2018-03-29T11:33:02Z</time>
      </trkpt>
      <trkpt lat="48.31459" lon="6.73983">
        <ele>460.61</ele>
        <time>2018-03-29T11:33:19Z</time>
      </trkpt>
      <trkpt lat="48.31453" lon="6.73944">
        <ele>461.09</ele>
        <time>2018-03-29T11:33:33Z</time>
      </trkpt>
      <trkpt lat="48.31447" lon="6.73907">
        <ele>461.09</ele>
        <time>2018-03-29T11:33:52Z</time>
      </trkpt>
      <trkpt lat="48.31447" lon="6.73905">
        <ele>461.09</ele>
        <time>2018-03-29T11:33:53Z</time>
      </trkpt>
      <trkpt lat="48.31444" lon="6.73877">
        <ele>460.61</ele>
        <time>2018-03-29T11:34:09Z</time>
      </trkpt>
      <trkpt lat="48.31441" lon="6.73847">
        <ele>459.65</ele>
        <time>2018-03-29T11:34:25Z</time>
      </trkpt>
      <trkpt lat="48.31438" lon="6.73815">
        <ele>457.72</ele>
        <time>2018-03-29T11:34:41Z</time>
      </trkpt>
      <trkpt lat="48.31435" lon="6.73803">
        <ele>457.24</ele>
        <time>2018-03-29T11:34:48Z</time>
      </trkpt>
      <trkpt lat="48.31434" lon="6.73797">
        <ele>456.28</ele>
        <time>2018-03-29T11:34:50Z</time>
      </trkpt>
      <trkpt lat="48.31428" lon="6.73776">
        <ele>455.32</ele>
        <time>2018-03-29T11:35:06Z</time>
      </trkpt>
      <trkpt lat="48.31417" lon="6.73739">
        <ele>454.36</ele>
        <time>2018-03-29T11:35:24Z</time>
      </trkpt>
      <trkpt lat="48.31405" lon="6.73696">
        <ele>452.44</ele>
        <time>2018-03-29T11:35:42Z</time>
      </trkpt>
      <trkpt lat="48.31395" lon="6.73668">
        <ele>450.52</ele>
        <time>2018-03-29T11:35:58Z</time>
      </trkpt>
      <trkpt lat="48.31387" lon="6.73643">
        <ele>448.59</ele>
        <time>2018-03-29T11:36:11Z</time>
      </trkpt>
      <trkpt lat="48.31378" lon="6.73613">
        <ele>445.71</ele>
        <time>2018-03-29T11:36:25Z</time>
      </trkpt>
      <trkpt lat="48.31366" lon="6.73583">
        <ele>443.79</ele>
        <time>2018-03-29T11:36:42Z</time>
      </trkpt>
      <trkpt lat="48.31353" lon="6.73558">
        <ele>442.34</ele>
        <time>2018-03-29T11:36:57Z</time>
      </trkpt>
      <trkpt lat="48.31339" lon="6.7353">
        <ele>440.9</ele>
        <time>2018-03-29T11:37:14Z</time>
      </trkpt>
      <trkpt lat="48.31328" lon="6.73507">
        <ele>441.38</ele>
        <time>2018-03-29T11:37:30Z</time>
      </trkpt>
      <trkpt lat="48.31314" lon="6.73479">
        <ele>441.38</ele>
        <time>2018-03-29T11:37:48Z</time>
      </trkpt>
      <trkpt lat="48.31305" lon="6.73457">
        <ele>441.38</ele>
        <time>2018-03-29T11:37:55Z</time>
      </trkpt>
      <trkpt lat="48.31297" lon="6.73441">
        <ele>440.9</ele>
        <time>2018-03-29T11:37:59Z</time>
      </trkpt>
      <trkpt lat="48.31291" lon="6.73433">
        <ele>440.9</ele>
        <time>2018-03-29T11:38:05Z</time>
      </trkpt>
      <trkpt lat="48.31287" lon="6.73417">
        <ele>440.9</ele>
        <time>2018-03-29T11:38:15Z</time>
      </trkpt>
      <trkpt lat="48.31281" lon="6.73407">
        <ele>440.42</ele>
        <time>2018-03-29T11:38:25Z</time>
      </trkpt>
      <trkpt lat="48.31269" lon="6.73387">
        <ele>439.46</ele>
        <time>2018-03-29T11:38:40Z</time>
      </trkpt>
      <trkpt lat="48.31264" lon="6.73362">
        <ele>439.46</ele>
        <time>2018-03-29T11:38:54Z</time>
      </trkpt>
      <trkpt lat="48.31265" lon="6.73353">
        <ele>439.46</ele>
        <time>2018-03-29T11:38:59Z</time>
      </trkpt>
      <trkpt lat="48.31266" lon="6.73344">
        <ele>439.46</ele>
        <time>2018-03-29T11:39:02Z</time>
      </trkpt>
      <trkpt lat="48.31269" lon="6.73329">
        <ele>440.9</ele>
        <time>2018-03-29T11:39:08Z</time>
      </trkpt>
      <trkpt lat="48.31282" lon="6.73303">
        <ele>440.9</ele>
        <time>2018-03-29T11:39:22Z</time>
      </trkpt>
      <trkpt lat="48.31283" lon="6.73302">
        <ele>441.38</ele>
        <time>2018-03-29T11:39:23Z</time>
      </trkpt>
      <trkpt lat="48.31294" lon="6.73277">
        <ele>441.38</ele>
        <time>2018-03-29T11:39:39Z</time>
      </trkpt>
      <trkpt lat="48.3131" lon="6.73253">
        <ele>440.42</ele>
        <time>2018-03-29T11:39:54Z</time>
      </trkpt>
      <trkpt lat="48.31317" lon="6.73242">
        <ele>440.42</ele>
        <time>2018-03-29T11:40:01Z</time>
      </trkpt>
      <trkpt lat="48.31342" lon="6.73232">
        <ele>440.42</ele>
        <time>2018-03-29T11:40:19Z</time>
      </trkpt>
      <trkpt lat="48.31346" lon="6.73231">
        <ele>440.42</ele>
        <time>2018-03-29T11:40:22Z</time>
      </trkpt>
      <trkpt lat="48.3135" lon="6.7323">
        <ele>441.38</ele>
        <time>2018-03-29T11:40:24Z</time>
      </trkpt>
      <trkpt lat="48.3137" lon="6.73228">
        <ele>442.82</ele>
        <time>2018-03-29T11:40:39Z</time>
      </trkpt>
      <trkpt lat="48.31393" lon="6.73229">
        <ele>443.79</ele>
        <time>2018-03-29T11:40:53Z</time>
      </trkpt>
      <trkpt lat="48.31404" lon="6.7323">
        <ele>443.79</ele>
        <time>2018-03-29T11:41:00Z</time>
      </trkpt>
      <trkpt lat="48.31421" lon="6.73226">
        <ele>444.75</ele>
        <time>2018-03-29T11:41:14Z</time>
      </trkpt>
      <trkpt lat="48.31442" lon="6.73208">
        <ele>445.71</ele>
        <time>2018-03-29T11:41:31Z</time>
      </trkpt>
      <trkpt lat="48.31442" lon="6.73207">
        <ele>445.71</ele>
        <time>2018-03-29T11:41:32Z</time>
      </trkpt>
      <trkpt lat="48.31452" lon="6.73179">
        <ele>445.71</ele>
        <time>2018-03-29T11:41:48Z</time>
      </trkpt>
      <trkpt lat="48.31454" lon="6.73152">
        <ele>445.71</ele>
        <time>2018-03-29T11:42:04Z</time>
      </trkpt>
      <trkpt lat="48.31457" lon="6.73125">
        <ele>445.71</ele>
        <time>2018-03-29T11:42:18Z</time>
      </trkpt>
      <trkpt lat="48.31456" lon="6.73121">
        <ele>444.75</ele>
        <time>2018-03-29T11:42:20Z</time>
      </trkpt>
      <trkpt lat="48.31453" lon="6.73087">
        <ele>444.27</ele>
        <time>2018-03-29T11:42:34Z</time>
      </trkpt>
      <trkpt lat="48.31453" lon="6.73082">
        <ele>444.27</ele>
        <time>2018-03-29T11:42:36Z</time>
      </trkpt>
      <trkpt lat="48.31453" lon="6.73077">
        <ele>444.27</ele>
        <time>2018-03-29T11:42:39Z</time>
      </trkpt>
      <trkpt lat="48.3145" lon="6.73038">
        <ele>443.31</ele>
        <time>2018-03-29T11:42:55Z</time>
      </trkpt>
      <trkpt lat="48.31443" lon="6.73009">
        <ele>443.31</ele>
        <time>2018-03-29T11:43:11Z</time>
      </trkpt>
      <trkpt lat="48.31435" lon="6.72979">
        <ele>442.82</ele>
        <time>2018-03-29T11:43:27Z</time>
      </trkpt>
      <trkpt lat="48.31439" lon="6.72943">
        <ele>441.38</ele>
        <time>2018-03-29T11:43:43Z</time>
      </trkpt>
      <trkpt lat="48.3146" lon="6.72923">
        <ele>441.38</ele>
        <time>2018-03-29T11:44:00Z</time>
      </trkpt>
      <trkpt lat="48.31469" lon="6.72924">
        <ele>440.9</ele>
        <time>2018-03-29T11:44:08Z</time>
      </trkpt>
      <trkpt lat="48.31472" lon="6.72924">
        <ele>440.9</ele>
        <time>2018-03-29T11:44:10Z</time>
      </trkpt>
      <trkpt lat="48.31488" lon="6.72937">
        <ele>440.42</ele>
        <time>2018-03-29T11:44:25Z</time>
      </trkpt>
      <trkpt lat="48.3151" lon="6.72959">
        <ele>438.5</ele>
        <time>2018-03-29T11:44:42Z</time>
      </trkpt>
      <trkpt lat="48.31529" lon="6.7298">
        <ele>437.54</ele>
        <time>2018-03-29T11:44:59Z</time>
      </trkpt>
      <trkpt lat="48.31543" lon="6.72997">
        <ele>436.58</ele>
        <time>2018-03-29T11:45:11Z</time>
      </trkpt>
      <trkpt lat="48.31546" lon="6.73">
        <ele>436.58</ele>
        <time>2018-03-29T11:45:13Z</time>
      </trkpt>
      <trkpt lat="48.31569" lon="6.73014">
        <ele>436.58</ele>
        <time>2018-03-29T11:45:32Z</time>
      </trkpt>
      <trkpt lat="48.3159" lon="6.73029">
        <ele>436.58</ele>
        <time>2018-03-29T11:45:46Z</time>
      </trkpt>
      <trkpt lat="48.31597" lon="6.73035">
        <ele>437.54</ele>
        <time>2018-03-29T11:45:51Z</time>
      </trkpt>
      <trkpt lat="48.31606" lon="6.73041">
        <ele>437.54</ele>
        <time>2018-03-29T11:46:02Z</time>
      </trkpt>
      <trkpt lat="48.31623" lon="6.7305">
        <ele>437.54</ele>
        <time>2018-03-29T11:46:17Z</time>
      </trkpt>
      <trkpt lat="48.31624" lon="6.7305">
        <ele>437.54</ele>
        <time>2018-03-29T11:46:18Z</time>
      </trkpt>
      <trkpt lat="48.31647" lon="6.7306">
        <ele>436.58</ele>
        <time>2018-03-29T11:46:37Z</time>
      </trkpt>
      <trkpt lat="48.31648" lon="6.73061">
        <ele>436.58</ele>
        <time>2018-03-29T11:46:38Z</time>
      </trkpt>
      <trkpt lat="48.31651" lon="6.73063">
        <ele>436.58</ele>
        <time>2018-03-29T11:46:42Z</time>
      </trkpt>
      <trkpt lat="48.31666" lon="6.73073">
        <ele>434.65</ele>
        <time>2018-03-29T11:46:52Z</time>
      </trkpt>
      <trkpt lat="48.3167" lon="6.73077">
        <ele>434.17</ele>
        <time>2018-03-29T11:46:55Z</time>
      </trkpt>
      <trkpt lat="48.31683" lon="6.73095">
        <ele>432.25</ele>
        <time>2018-03-29T11:47:10Z</time>
      </trkpt>
      <trkpt lat="48.31686" lon="6.73101">
        <ele>431.29</ele>
        <time>2018-03-29T11:47:14Z</time>
      </trkpt>
      <trkpt lat="48.31688" lon="6.73103">
        <ele>431.29</ele>
        <time>2018-03-29T11:47:16Z</time>
      </trkpt>
      <trkpt lat="48.31708" lon="6.73134">
        <ele>428.4</ele>
        <time>2018-03-29T11:47:32Z</time>
      </trkpt>
      <trkpt lat="48.31722" lon="6.73159">
        <ele>426</ele>
        <time>2018-03-29T11:47:48Z</time>
      </trkpt>
      <trkpt lat="48.31739" lon="6.73181">
        <ele>424.08</ele>
        <time>2018-03-29T11:48:03Z</time>
      </trkpt>
      <trkpt lat="48.31758" lon="6.73198">
        <ele>421.19</ele>
        <time>2018-03-29T11:48:20Z</time>
      </trkpt>
      <trkpt lat="48.31777" lon="6.73228">
        <ele>418.79</ele>
        <time>2018-03-29T11:48:39Z</time>
      </trkpt>
      <trkpt lat="48.31792" lon="6.73247">
        <ele>416.87</ele>
        <time>2018-03-29T11:48:54Z</time>
      </trkpt>
      <trkpt lat="48.3181" lon="6.7327">
        <ele>414.47</ele>
        <time>2018-03-29T11:49:12Z</time>
      </trkpt>
      <trkpt lat="48.31825" lon="6.73302">
        <ele>412.06</ele>
        <time>2018-03-29T11:49:30Z</time>
      </trkpt>
      <trkpt lat="48.31842" lon="6.73333">
        <ele>409.18</ele>
        <time>2018-03-29T11:49:49Z</time>
      </trkpt>
      <trkpt lat="48.31858" lon="6.73357">
        <ele>407.26</ele>
        <time>2018-03-29T11:50:04Z</time>
      </trkpt>
      <trkpt lat="48.31864" lon="6.73364">
        <ele>406.29</ele>
        <time>2018-03-29T11:50:10Z</time>
      </trkpt>
      <trkpt lat="48.3188" lon="6.73381">
        <ele>403.89</ele>
        <time>2018-03-29T11:50:25Z</time>
      </trkpt>
      <trkpt lat="48.31898" lon="6.73393">
        <ele>401.01</ele>
        <time>2018-03-29T11:50:42Z</time>
      </trkpt>
      <trkpt lat="48.31921" lon="6.73395">
        <ele>399.08</ele>
        <time>2018-03-29T11:50:57Z</time>
      </trkpt>
      <trkpt lat="48.31935" lon="6.73391">
        <ele>396.68</ele>
        <time>2018-03-29T11:51:14Z</time>
      </trkpt>
      <trkpt lat="48.31954" lon="6.73395">
        <ele>393.8</ele>
        <time>2018-03-29T11:51:33Z</time>
      </trkpt>
      <trkpt lat="48.3198" lon="6.73406">
        <ele>391.87</ele>
        <time>2018-03-29T11:51:49Z</time>
      </trkpt>
      <trkpt lat="48.32001" lon="6.7342">
        <ele>388.99</ele>
        <time>2018-03-29T11:52:06Z</time>
      </trkpt>
      <trkpt lat="48.32026" lon="6.73444">
        <ele>387.07</ele>
        <time>2018-03-29T11:52:22Z</time>
      </trkpt>
      <trkpt lat="48.32042" lon="6.73463">
        <ele>384.18</ele>
        <time>2018-03-29T11:52:39Z</time>
      </trkpt>
      <trkpt lat="48.32066" lon="6.73484">
        <ele>382.26</ele>
        <time>2018-03-29T11:52:56Z</time>
      </trkpt>
      <trkpt lat="48.32081" lon="6.73495">
        <ele>379.38</ele>
        <time>2018-03-29T11:53:13Z</time>
      </trkpt>
      <trkpt lat="48.32103" lon="6.73516">
        <ele>376.97</ele>
        <time>2018-03-29T11:53:33Z</time>
      </trkpt>
      <trkpt lat="48.32129" lon="6.7354">
        <ele>373.61</ele>
        <time>2018-03-29T11:53:52Z</time>
      </trkpt>
      <trkpt lat="48.32147" lon="6.73555">
        <ele>371.21</ele>
        <time>2018-03-29T11:54:10Z</time>
      </trkpt>
      <trkpt lat="48.32174" lon="6.7358">
        <ele>369.28</ele>
        <time>2018-03-29T11:54:27Z</time>
      </trkpt>
      <trkpt lat="48.32193" lon="6.736">
        <ele>366.4</ele>
        <time>2018-03-29T11:54:44Z</time>
      </trkpt>
      <trkpt lat="48.32214" lon="6.73626">
        <ele>364</ele>
        <time>2018-03-29T11:55:03Z</time>
      </trkpt>
      <trkpt lat="48.32226" lon="6.73636">
        <ele>362.55</ele>
        <time>2018-03-29T11:55:17Z</time>
      </trkpt>
      <trkpt lat="48.3224" lon="6.73644">
        <ele>361.11</ele>
        <time>2018-03-29T11:55:31Z</time>
      </trkpt>
      <trkpt lat="48.32239" lon="6.73653">
        <ele>361.11</ele>
        <time>2018-03-29T11:55:56Z</time>
      </trkpt>
      <trkpt lat="48.3226" lon="6.73664">
        <ele>359.19</ele>
        <time>2018-03-29T11:56:13Z</time>
      </trkpt>
      <trkpt lat="48.32257" lon="6.73676">
        <ele>357.27</ele>
        <time>2018-03-29T11:56:20Z</time>
      </trkpt>
      <trkpt lat="48.32263" lon="6.73685">
        <ele>356.31</ele>
        <time>2018-03-29T11:56:27Z</time>
      </trkpt>
      <trkpt lat="48.32287" lon="6.73687">
        <ele>354.86</ele>
        <time>2018-03-29T11:56:43Z</time>
      </trkpt>
      <trkpt lat="48.32302" lon="6.73689">
        <ele>353.9</ele>
        <time>2018-03-29T11:56:57Z</time>
      </trkpt>
      <trkpt lat="48.32304" lon="6.73675">
        <ele>353.9</ele>
        <time>2018-03-29T11:57:12Z</time>
      </trkpt>
      <trkpt lat="48.3231" lon="6.73658">
        <ele>354.38</ele>
        <time>2018-03-29T11:57:25Z</time>
      </trkpt>
      <trkpt lat="48.3232" lon="6.73634">
        <ele>354.38</ele>
        <time>2018-03-29T11:57:39Z</time>
      </trkpt>
      <trkpt lat="48.32327" lon="6.73605">
        <ele>353.42</ele>
        <time>2018-03-29T11:57:55Z</time>
      </trkpt>
      <trkpt lat="48.32331" lon="6.73574">
        <ele>353.42</ele>
        <time>2018-03-29T11:58:08Z</time>
      </trkpt>
      <trkpt lat="48.32332" lon="6.73564">
        <ele>352.94</ele>
        <time>2018-03-29T11:58:11Z</time>
      </trkpt>
      <trkpt lat="48.32335" lon="6.73553">
        <ele>352.94</ele>
        <time>2018-03-29T11:58:15Z</time>
      </trkpt>
      <trkpt lat="48.3234" lon="6.73538">
        <ele>352.46</ele>
        <time>2018-03-29T11:58:22Z</time>
      </trkpt>
      <trkpt lat="48.32343" lon="6.73511">
        <ele>351.98</ele>
        <time>2018-03-29T11:58:38Z</time>
      </trkpt>
      <trkpt lat="48.32349" lon="6.73495">
        <ele>351.98</ele>
        <time>2018-03-29T11:58:49Z</time>
      </trkpt>
      <trkpt lat="48.32352" lon="6.73468">
        <ele>351.5</ele>
        <time>2018-03-29T11:59:03Z</time>
      </trkpt>
      <trkpt lat="48.32355" lon="6.73439">
        <ele>351.02</ele>
        <time>2018-03-29T11:59:18Z</time>
      </trkpt>
      <trkpt lat="48.32358" lon="6.73417">
        <ele>352.46</ele>
        <time>2018-03-29T11:59:28Z</time>
      </trkpt>
      <trkpt lat="48.3236" lon="6.73391">
        <ele>352.94</ele>
        <time>2018-03-29T11:59:41Z</time>
      </trkpt>
      <trkpt lat="48.32357" lon="6.73367">
        <ele>352.94</ele>
        <time>2018-03-29T11:59:51Z</time>
      </trkpt>
      <trkpt lat="48.32363" lon="6.73336">
        <ele>352.94</ele>
        <time>2018-03-29T12:00:05Z</time>
      </trkpt>
      <trkpt lat="48.32363" lon="6.73335">
        <ele>352.94</ele>
        <time>2018-03-29T12:00:06Z</time>
      </trkpt>
      <trkpt lat="48.32365" lon="6.7329">
        <ele>351.5</ele>
        <time>2018-03-29T12:00:22Z</time>
      </trkpt>
      <trkpt lat="48.32366" lon="6.73252">
        <ele>351.5</ele>
        <time>2018-03-29T12:00:41Z</time>
      </trkpt>
      <trkpt lat="48.32364" lon="6.73218">
        <ele>351.5</ele>
        <time>2018-03-29T12:00:56Z</time>
      </trkpt>
      <trkpt lat="48.32365" lon="6.73181">
        <ele>351.5</ele>
        <time>2018-03-29T12:01:13Z</time>
      </trkpt>
      <trkpt lat="48.32363" lon="6.73149">
        <ele>351.02</ele>
        <time>2018-03-29T12:01:29Z</time>
      </trkpt>
      <trkpt lat="48.32363" lon="6.73147">
        <ele>351.02</ele>
        <time>2018-03-29T12:01:30Z</time>
      </trkpt>
      <trkpt lat="48.3236" lon="6.7311">
        <ele>350.06</ele>
        <time>2018-03-29T12:01:48Z</time>
      </trkpt>
      <trkpt lat="48.32354" lon="6.73078">
        <ele>351.5</ele>
        <time>2018-03-29T12:02:04Z</time>
      </trkpt>
      <trkpt lat="48.32351" lon="6.73067">
        <ele>351.5</ele>
        <time>2018-03-29T12:02:09Z</time>
      </trkpt>
      <trkpt lat="48.32346" lon="6.73039">
        <ele>351.98</ele>
        <time>2018-03-29T12:02:25Z</time>
      </trkpt>
      <trkpt lat="48.32343" lon="6.73022">
        <ele>351.98</ele>
        <time>2018-03-29T12:02:36Z</time>
      </trkpt>
      <trkpt lat="48.32341" lon="6.73016">
        <ele>351.98</ele>
        <time>2018-03-29T12:02:39Z</time>
      </trkpt>
      <trkpt lat="48.32336" lon="6.72996">
        <ele>352.46</ele>
        <time>2018-03-29T12:02:50Z</time>
      </trkpt>
      <trkpt lat="48.32329" lon="6.72965">
        <ele>352.94</ele>
        <time>2018-03-29T12:03:06Z</time>
      </trkpt>
      <trkpt lat="48.32321" lon="6.72942">
        <ele>353.42</ele>
        <time>2018-03-29T12:03:20Z</time>
      </trkpt>
      <trkpt lat="48.3232" lon="6.72935">
        <ele>353.42</ele>
        <time>2018-03-29T12:03:24Z</time>
      </trkpt>
      <trkpt lat="48.32311" lon="6.72903">
        <ele>351.98</ele>
        <time>2018-03-29T12:03:41Z</time>
      </trkpt>
      <trkpt lat="48.32306" lon="6.72873">
        <ele>351.5</ele>
        <time>2018-03-29T12:03:56Z</time>
      </trkpt>
      <trkpt lat="48.32304" lon="6.72858">
        <ele>350.54</ele>
        <time>2018-03-29T12:04:06Z</time>
      </trkpt>
      <trkpt lat="48.32303" lon="6.7285">
        <ele>350.06</ele>
        <time>2018-03-29T12:04:10Z</time>
      </trkpt>
      <trkpt lat="48.32306" lon="6.72827">
        <ele>348.62</ele>
        <time>2018-03-29T12:04:22Z</time>
      </trkpt>
      <trkpt lat="48.32313" lon="6.72817">
        <ele>346.69</ele>
        <time>2018-03-29T12:04:36Z</time>
      </trkpt>
      <trkpt lat="48.32322" lon="6.72802">
        <ele>345.25</ele>
        <time>2018-03-29T12:04:51Z</time>
      </trkpt>
      <trkpt lat="48.32334" lon="6.72778">
        <ele>345.25</ele>
        <time>2018-03-29T12:05:10Z</time>
      </trkpt>
      <trkpt lat="48.3234" lon="6.72755">
        <ele>345.25</ele>
        <time>2018-03-29T12:05:26Z</time>
      </trkpt>
      <trkpt lat="48.32354" lon="6.72709">
        <ele>344.29</ele>
        <time>2018-03-29T12:05:43Z</time>
      </trkpt>
      <trkpt lat="48.32361" lon="6.72673">
        <ele>344.29</ele>
        <time>2018-03-29T12:05:58Z</time>
      </trkpt>
      <trkpt lat="48.32364" lon="6.7263">
        <ele>344.29</ele>
        <time>2018-03-29T12:06:13Z</time>
      </trkpt>
      <trkpt lat="48.32367" lon="6.72603">
        <ele>344.29</ele>
        <time>2018-03-29T12:06:22Z</time>
      </trkpt>
      <trkpt lat="48.32368" lon="6.72593">
        <ele>344.29</ele>
        <time>2018-03-29T12:06:26Z</time>
      </trkpt>
      <trkpt lat="48.32369" lon="6.72587">
        <ele>343.81</ele>
        <time>2018-03-29T12:06:28Z</time>
      </trkpt>
      <trkpt lat="48.32369" lon="6.72558">
        <ele>343.81</ele>
        <time>2018-03-29T12:06:41Z</time>
      </trkpt>
      <trkpt lat="48.32371" lon="6.72531">
        <ele>345.25</ele>
        <time>2018-03-29T12:06:53Z</time>
      </trkpt>
      <trkpt lat="48.32376" lon="6.72487">
        <ele>345.73</ele>
        <time>2018-03-29T12:07:11Z</time>
      </trkpt>
      <trkpt lat="48.32378" lon="6.72458">
        <ele>344.29</ele>
        <time>2018-03-29T12:07:26Z</time>
      </trkpt>
      <trkpt lat="48.32382" lon="6.72435">
        <ele>343.81</ele>
        <time>2018-03-29T12:07:38Z</time>
      </trkpt>
      <trkpt lat="48.32393" lon="6.72407">
        <ele>343.33</ele>
        <time>2018-03-29T12:07:55Z</time>
      </trkpt>
      <trkpt lat="48.32398" lon="6.72392">
        <ele>342.37</ele>
        <time>2018-03-29T12:08:04Z</time>
      </trkpt>
      <trkpt lat="48.3241" lon="6.72351">
        <ele>340.92</ele>
        <time>2018-03-29T12:08:21Z</time>
      </trkpt>
      <trkpt lat="48.32411" lon="6.72349">
        <ele>340.92</ele>
        <time>2018-03-29T12:08:22Z</time>
      </trkpt>
      <trkpt lat="48.32417" lon="6.72335">
        <ele>340.44</ele>
        <time>2018-03-29T12:08:29Z</time>
      </trkpt>
      <trkpt lat="48.32419" lon="6.72332">
        <ele>340.44</ele>
        <time>2018-03-29T12:08:31Z</time>
      </trkpt>
      <trkpt lat="48.32424" lon="6.72302">
        <ele>339.48</ele>
        <time>2018-03-29T12:08:48Z</time>
      </trkpt>
      <trkpt lat="48.32426" lon="6.72249">
        <ele>338.52</ele>
        <time>2018-03-29T12:09:06Z</time>
      </trkpt>
      <trkpt lat="48.32423" lon="6.72231">
        <ele>338.52</ele>
        <time>2018-03-29T12:09:15Z</time>
      </trkpt>
      <trkpt lat="48.32427" lon="6.72204">
        <ele>338.52</ele>
        <time>2018-03-29T12:09:31Z</time>
      </trkpt>
      <trkpt lat="48.32431" lon="6.72168">
        <ele>338.52</ele>
        <time>2018-03-29T12:09:47Z</time>
      </trkpt>
      <trkpt lat="48.32433" lon="6.72145">
        <ele>338.52</ele>
        <time>2018-03-29T12:09:54Z</time>
      </trkpt>
      <trkpt lat="48.32427" lon="6.72108">
        <ele>338.04</ele>
        <time>2018-03-29T12:10:11Z</time>
      </trkpt>
      <trkpt lat="48.32426" lon="6.72078">
        <ele>338.04</ele>
        <time>2018-03-29T12:10:25Z</time>
      </trkpt>
      <trkpt lat="48.32426" lon="6.7207">
        <ele>338.04</ele>
        <time>2018-03-29T12:10:30Z</time>
      </trkpt>
      <trkpt lat="48.32423" lon="6.72053">
        <ele>338.04</ele>
        <time>2018-03-29T12:10:37Z</time>
      </trkpt>
      <trkpt lat="48.3242" lon="6.72036">
        <ele>339.48</ele>
        <time>2018-03-29T12:10:51Z</time>
      </trkpt>
      <trkpt lat="48.32419" lon="6.71987">
        <ele>339.48</ele>
        <time>2018-03-29T12:11:07Z</time>
      </trkpt>
      <trkpt lat="48.3242" lon="6.71959">
        <ele>339.48</ele>
        <time>2018-03-29T12:11:20Z</time>
      </trkpt>
      <trkpt lat="48.32421" lon="6.71934">
        <ele>339.96</ele>
        <time>2018-03-29T12:11:34Z</time>
      </trkpt>
      <trkpt lat="48.32423" lon="6.71914">
        <ele>340.44</ele>
        <time>2018-03-29T12:11:48Z</time>
      </trkpt>
      <trkpt lat="48.32425" lon="6.7191">
        <ele>340.44</ele>
        <time>2018-03-29T12:12:04Z</time>
      </trkpt>
      <trkpt lat="48.32435" lon="6.71875">
        <ele>339.96</ele>
        <time>2018-03-29T12:12:28Z</time>
      </trkpt>
      <trkpt lat="48.32438" lon="6.71868">
        <ele>339.96</ele>
        <time>2018-03-29T12:12:32Z</time>
      </trkpt>
      <trkpt lat="48.32445" lon="6.71853">
        <ele>339.48</ele>
        <time>2018-03-29T12:12:39Z</time>
      </trkpt>
      <trkpt lat="48.3245" lon="6.71815">
        <ele>339</ele>
        <time>2018-03-29T12:12:55Z</time>
      </trkpt>
      <trkpt lat="48.32449" lon="6.71799">
        <ele>338.52</ele>
        <time>2018-03-29T12:13:05Z</time>
      </trkpt>
      <trkpt lat="48.32449" lon="6.71794">
        <ele>338.52</ele>
        <time>2018-03-29T12:13:09Z</time>
      </trkpt>
      <trkpt lat="48.32451" lon="6.71775">
        <ele>338.04</ele>
        <time>2018-03-29T12:13:17Z</time>
      </trkpt>
      <trkpt lat="48.32452" lon="6.71743">
        <ele>338.04</ele>
        <time>2018-03-29T12:13:34Z</time>
      </trkpt>
      <trkpt lat="48.32452" lon="6.71728">
        <ele>338.04</ele>
        <time>2018-03-29T12:13:48Z</time>
      </trkpt>
      <trkpt lat="48.32453" lon="6.71725">
        <ele>338.52</ele>
        <time>2018-03-29T12:13:56Z</time>
      </trkpt>
      <trkpt lat="48.32455" lon="6.71748">
        <ele>338.52</ele>
        <time>2018-03-29T12:14:09Z</time>
      </trkpt>
      <trkpt lat="48.32456" lon="6.71749">
        <ele>338.52</ele>
        <time>2018-03-29T12:14:10Z</time>
      </trkpt>
      <trkpt lat="48.32457" lon="6.71754">
        <ele>338.52</ele>
        <time>2018-03-29T12:14:12Z</time>
      </trkpt>
      <trkpt lat="48.32459" lon="6.7176">
        <ele>338.52</ele>
        <time>2018-03-29T12:14:15Z</time>
      </trkpt>
      <trkpt lat="48.32457" lon="6.71773">
        <ele>338.52</ele>
        <time>2018-03-29T12:14:21Z</time>
      </trkpt>
      <trkpt lat="48.32456" lon="6.71782">
        <ele>338.52</ele>
        <time>2018-03-29T12:14:25Z</time>
      </trkpt>
      <trkpt lat="48.32453" lon="6.71816">
        <ele>338.52</ele>
        <time>2018-03-29T12:14:41Z</time>
      </trkpt>
      <trkpt lat="48.32452" lon="6.71823">
        <ele>339.48</ele>
        <time>2018-03-29T12:14:45Z</time>
      </trkpt>
      <trkpt lat="48.32448" lon="6.71848">
        <ele>339.96</ele>
        <time>2018-03-29T12:15:01Z</time>
      </trkpt>
      <trkpt lat="48.32435" lon="6.7188">
        <ele>340.44</ele>
        <time>2018-03-29T12:15:15Z</time>
      </trkpt>
      <trkpt lat="48.3243" lon="6.71888">
        <ele>340.44</ele>
        <time>2018-03-29T12:15:20Z</time>
      </trkpt>
      <trkpt lat="48.32428" lon="6.71898">
        <ele>340.44</ele>
        <time>2018-03-29T12:15:24Z</time>
      </trkpt>
      <trkpt lat="48.32427" lon="6.71902">
        <ele>340.44</ele>
        <time>2018-03-29T12:15:26Z</time>
      </trkpt>
      <trkpt lat="48.32417" lon="6.71926">
        <ele>340.92</ele>
        <time>2018-03-29T12:15:42Z</time>
      </trkpt>
      <trkpt lat="48.32404" lon="6.71942">
        <ele>341.41</ele>
        <time>2018-03-29T12:15:55Z</time>
      </trkpt>
      <trkpt lat="48.32398" lon="6.71937">
        <ele>342.85</ele>
        <time>2018-03-29T12:16:06Z</time>
      </trkpt>
      <trkpt lat="48.32396" lon="6.71928">
        <ele>346.21</ele>
        <time>2018-03-29T12:16:16Z</time>
      </trkpt>
      <trkpt lat="48.32387" lon="6.71921">
        <ele>348.62</ele>
        <time>2018-03-29T12:16:28Z</time>
      </trkpt>
      <trkpt lat="48.32383" lon="6.7191">
        <ele>351.5</ele>
        <time>2018-03-29T12:16:41Z</time>
      </trkpt>
      <trkpt lat="48.32374" lon="6.71898">
        <ele>354.86</ele>
        <time>2018-03-29T12:16:54Z</time>
      </trkpt>
      <trkpt lat="48.3237" lon="6.71888">
        <ele>357.27</ele>
        <time>2018-03-29T12:17:08Z</time>
      </trkpt>
      <trkpt lat="48.32379" lon="6.7188">
        <ele>360.63</ele>
        <time>2018-03-29T12:17:20Z</time>
      </trkpt>
      <trkpt lat="48.3238" lon="6.71877">
        <ele>364</ele>
        <time>2018-03-29T12:17:34Z</time>
      </trkpt>
      <trkpt lat="48.32386" lon="6.71873">
        <ele>365.92</ele>
        <time>2018-03-29T12:17:49Z</time>
      </trkpt>
      <trkpt lat="48.32393" lon="6.71862">
        <ele>366.88</ele>
        <time>2018-03-29T12:18:03Z</time>
      </trkpt>
      <trkpt lat="48.32403" lon="6.71855">
        <ele>369.28</ele>
        <time>2018-03-29T12:18:15Z</time>
      </trkpt>
      <trkpt lat="48.32403" lon="6.71854">
        <ele>369.28</ele>
        <time>2018-03-29T12:18:16Z</time>
      </trkpt>
      <trkpt lat="48.32404" lon="6.7184">
        <ele>369.28</ele>
        <time>2018-03-29T12:18:26Z</time>
      </trkpt>
      <trkpt lat="48.32408" lon="6.71818">
        <ele>369.28</ele>
        <time>2018-03-29T12:18:40Z</time>
      </trkpt>
      <trkpt lat="48.32409" lon="6.71811">
        <ele>369.28</ele>
        <time>2018-03-29T12:18:44Z</time>
      </trkpt>
      <trkpt lat="48.32408" lon="6.71803">
        <ele>367.84</ele>
        <time>2018-03-29T12:18:48Z</time>
      </trkpt>
      <trkpt lat="48.32409" lon="6.7179">
        <ele>367.36</ele>
        <time>2018-03-29T12:19:00Z</time>
      </trkpt>
      <trkpt lat="48.32405" lon="6.71785">
        <ele>366.88</ele>
        <time>2018-03-29T12:19:10Z</time>
      </trkpt>
      <trkpt lat="48.32389" lon="6.7178">
        <ele>366.88</ele>
        <time>2018-03-29T12:19:24Z</time>
      </trkpt>
      <trkpt lat="48.32375" lon="6.71768">
        <ele>367.84</ele>
        <time>2018-03-29T12:19:38Z</time>
      </trkpt>
      <trkpt lat="48.32373" lon="6.71766">
        <ele>367.84</ele>
        <time>2018-03-29T12:19:40Z</time>
      </trkpt>
      <trkpt lat="48.32364" lon="6.71766">
        <ele>368.8</ele>
        <time>2018-03-29T12:19:48Z</time>
      </trkpt>
      <trkpt lat="48.32347" lon="6.71763">
        <ele>369.28</ele>
        <time>2018-03-29T12:20:02Z</time>
      </trkpt>
      <trkpt lat="48.32335" lon="6.71757">
        <ele>369.76</ele>
        <time>2018-03-29T12:20:12Z</time>
      </trkpt>
      <trkpt lat="48.32321" lon="6.71754">
        <ele>370.24</ele>
        <time>2018-03-29T12:20:24Z</time>
      </trkpt>
      <trkpt lat="48.32297" lon="6.71751">
        <ele>371.21</ele>
        <time>2018-03-29T12:20:39Z</time>
      </trkpt>
      <trkpt lat="48.32283" lon="6.71754">
        <ele>371.21</ele>
        <time>2018-03-29T12:20:52Z</time>
      </trkpt>
      <trkpt lat="48.32276" lon="6.71756">
        <ele>371.21</ele>
        <time>2018-03-29T12:20:57Z</time>
      </trkpt>
      <trkpt lat="48.32255" lon="6.71763">
        <ele>370.73</ele>
        <time>2018-03-29T12:21:12Z</time>
      </trkpt>
      <trkpt lat="48.32238" lon="6.71766">
        <ele>370.73</ele>
        <time>2018-03-29T12:21:24Z</time>
      </trkpt>
      <trkpt lat="48.32219" lon="6.71764">
        <ele>370.24</ele>
        <time>2018-03-29T12:21:38Z</time>
      </trkpt>
      <trkpt lat="48.32206" lon="6.71765">
        <ele>371.21</ele>
        <time>2018-03-29T12:21:51Z</time>
      </trkpt>
      <trkpt lat="48.32195" lon="6.71765">
        <ele>371.21</ele>
        <time>2018-03-29T12:22:01Z</time>
      </trkpt>
      <trkpt lat="48.32179" lon="6.71771">
        <ele>372.65</ele>
        <time>2018-03-29T12:22:14Z</time>
      </trkpt>
      <trkpt lat="48.32162" lon="6.71784">
        <ele>373.13</ele>
        <time>2018-03-29T12:22:28Z</time>
      </trkpt>
      <trkpt lat="48.32147" lon="6.71794">
        <ele>373.13</ele>
        <time>2018-03-29T12:22:41Z</time>
      </trkpt>
      <trkpt lat="48.32129" lon="6.71803">
        <ele>373.13</ele>
        <time>2018-03-29T12:22:54Z</time>
      </trkpt>
      <trkpt lat="48.32122" lon="6.71803">
        <ele>373.13</ele>
        <time>2018-03-29T12:22:59Z</time>
      </trkpt>
      <trkpt lat="48.32114" lon="6.71805">
        <ele>373.13</ele>
        <time>2018-03-29T12:23:04Z</time>
      </trkpt>
      <trkpt lat="48.32099" lon="6.71807">
        <ele>373.13</ele>
        <time>2018-03-29T12:23:16Z</time>
      </trkpt>
      <trkpt lat="48.32087" lon="6.71804">
        <ele>373.13</ele>
        <time>2018-03-29T12:23:26Z</time>
      </trkpt>
      <trkpt lat="48.32083" lon="6.71803">
        <ele>373.13</ele>
        <time>2018-03-29T12:23:29Z</time>
      </trkpt>
      <trkpt lat="48.32077" lon="6.71803">
        <ele>373.13</ele>
        <time>2018-03-29T12:23:33Z</time>
      </trkpt>
      <trkpt lat="48.32059" lon="6.7181">
        <ele>373.13</ele>
        <time>2018-03-29T12:23:44Z</time>
      </trkpt>
      <trkpt lat="48.32052" lon="6.71811">
        <ele>373.13</ele>
        <time>2018-03-29T12:23:48Z</time>
      </trkpt>
      <trkpt lat="48.32042" lon="6.71809">
        <ele>373.13</ele>
        <time>2018-03-29T12:23:55Z</time>
      </trkpt>
      <trkpt lat="48.32025" lon="6.71812">
        <ele>371.69</ele>
        <time>2018-03-29T12:24:09Z</time>
      </trkpt>
      <trkpt lat="48.32022" lon="6.71812">
        <ele>371.69</ele>
        <time>2018-03-29T12:24:12Z</time>
      </trkpt>
      <trkpt lat="48.32007" lon="6.71813">
        <ele>371.21</ele>
        <time>2018-03-29T12:24:27Z</time>
      </trkpt>
      <trkpt lat="48.31995" lon="6.71813">
        <ele>370.73</ele>
        <time>2018-03-29T12:24:39Z</time>
      </trkpt>
      <trkpt lat="48.31993" lon="6.71813">
        <ele>370.73</ele>
        <time>2018-03-29T12:24:40Z</time>
      </trkpt>
      <trkpt lat="48.3199" lon="6.71814">
        <ele>370.73</ele>
        <time>2018-03-29T12:24:42Z</time>
      </trkpt>
      <trkpt lat="48.31972" lon="6.71818">
        <ele>371.69</ele>
        <time>2018-03-29T12:24:55Z</time>
      </trkpt>
      <trkpt lat="48.3196" lon="6.71817">
        <ele>371.69</ele>
        <time>2018-03-29T12:25:05Z</time>
      </trkpt>
      <trkpt lat="48.31939" lon="6.71818">
        <ele>372.17</ele>
        <time>2018-03-29T12:25:20Z</time>
      </trkpt>
      <trkpt lat="48.31924" lon="6.71819">
        <ele>372.65</ele>
        <time>2018-03-29T12:25:30Z</time>
      </trkpt>
      <trkpt lat="48.31903" lon="6.71818">
        <ele>373.13</ele>
        <time>2018-03-29T12:25:44Z</time>
      </trkpt>
      <trkpt lat="48.31893" lon="6.71813">
        <ele>373.61</ele>
        <time>2018-03-29T12:25:55Z</time>
      </trkpt>
      <trkpt lat="48.3188" lon="6.71806">
        <ele>373.13</ele>
        <time>2018-03-29T12:26:07Z</time>
      </trkpt>
      <trkpt lat="48.3187" lon="6.71799">
        <ele>373.13</ele>
        <time>2018-03-29T12:26:16Z</time>
      </trkpt>
      <trkpt lat="48.31851" lon="6.71787">
        <ele>373.61</ele>
        <time>2018-03-29T12:26:30Z</time>
      </trkpt>
      <trkpt lat="48.31835" lon="6.71777">
        <ele>373.61</ele>
        <time>2018-03-29T12:26:42Z</time>
      </trkpt>
      <trkpt lat="48.3182" lon="6.71769">
        <ele>373.61</ele>
        <time>2018-03-29T12:26:55Z</time>
      </trkpt>
      <trkpt lat="48.31809" lon="6.71762">
        <ele>373.61</ele>
        <time>2018-03-29T12:27:06Z</time>
      </trkpt>
      <trkpt lat="48.31789" lon="6.71746">
        <ele>373.13</ele>
        <time>2018-03-29T12:27:20Z</time>
      </trkpt>
      <trkpt lat="48.31771" lon="6.71739">
        <ele>373.13</ele>
        <time>2018-03-29T12:27:32Z</time>
      </trkpt>
      <trkpt lat="48.31759" lon="6.71733">
        <ele>373.13</ele>
        <time>2018-03-29T12:27:43Z</time>
      </trkpt>
      <trkpt lat="48.31752" lon="6.71723">
        <ele>373.13</ele>
        <time>2018-03-29T12:27:51Z</time>
      </trkpt>
      <trkpt lat="48.31738" lon="6.71713">
        <ele>373.13</ele>
        <time>2018-03-29T12:28:03Z</time>
      </trkpt>
      <trkpt lat="48.31727" lon="6.71705">
        <ele>373.13</ele>
        <time>2018-03-29T12:28:13Z</time>
      </trkpt>
      <trkpt lat="48.31717" lon="6.71698">
        <ele>373.13</ele>
        <time>2018-03-29T12:28:21Z</time>
      </trkpt>
      <trkpt lat="48.31697" lon="6.71696">
        <ele>372.65</ele>
        <time>2018-03-29T12:28:34Z</time>
      </trkpt>
      <trkpt lat="48.31694" lon="6.71694">
        <ele>372.65</ele>
        <time>2018-03-29T12:28:37Z</time>
      </trkpt>
      <trkpt lat="48.31676" lon="6.71687">
        <ele>372.65</ele>
        <time>2018-03-29T12:28:51Z</time>
      </trkpt>
      <trkpt lat="48.31661" lon="6.71685">
        <ele>372.65</ele>
        <time>2018-03-29T12:29:04Z</time>
      </trkpt>
      <trkpt lat="48.31644" lon="6.71685">
        <ele>374.09</ele>
        <time>2018-03-29T12:29:16Z</time>
      </trkpt>
      <trkpt lat="48.31628" lon="6.71685">
        <ele>374.09</ele>
        <time>2018-03-29T12:29:29Z</time>
      </trkpt>
      <trkpt lat="48.31608" lon="6.71687">
        <ele>375.05</ele>
        <time>2018-03-29T12:29:43Z</time>
      </trkpt>
      <trkpt lat="48.31591" lon="6.7169">
        <ele>375.05</ele>
        <time>2018-03-29T12:29:57Z</time>
      </trkpt>
      <trkpt lat="48.31574" lon="6.71697">
        <ele>375.53</ele>
        <time>2018-03-29T12:30:09Z</time>
      </trkpt>
      <trkpt lat="48.31564" lon="6.7171">
        <ele>375.53</ele>
        <time>2018-03-29T12:30:20Z</time>
      </trkpt>
      <trkpt lat="48.31553" lon="6.71723">
        <ele>376.01</ele>
        <time>2018-03-29T12:30:35Z</time>
      </trkpt>
      <trkpt lat="48.31542" lon="6.71732">
        <ele>376.01</ele>
        <time>2018-03-29T12:30:46Z</time>
      </trkpt>
      <trkpt lat="48.31528" lon="6.71746">
        <ele>376.49</ele>
        <time>2018-03-29T12:30:59Z</time>
      </trkpt>
      <trkpt lat="48.31514" lon="6.71756">
        <ele>377.94</ele>
        <time>2018-03-29T12:31:13Z</time>
      </trkpt>
      <trkpt lat="48.31497" lon="6.71772">
        <ele>379.38</ele>
        <time>2018-03-29T12:31:27Z</time>
      </trkpt>
      <trkpt lat="48.31484" lon="6.71785">
        <ele>380.34</ele>
        <time>2018-03-29T12:31:40Z</time>
      </trkpt>
      <trkpt lat="48.31469" lon="6.71802">
        <ele>381.3</ele>
        <time>2018-03-29T12:31:53Z</time>
      </trkpt>
      <trkpt lat="48.31452" lon="6.71816">
        <ele>383.22</ele>
        <time>2018-03-29T12:32:07Z</time>
      </trkpt>
      <trkpt lat="48.31443" lon="6.71823">
        <ele>384.18</ele>
        <time>2018-03-29T12:32:18Z</time>
      </trkpt>
      <trkpt lat="48.3143" lon="6.71833">
        <ele>385.15</ele>
        <time>2018-03-29T12:32:30Z</time>
      </trkpt>
      <trkpt lat="48.31416" lon="6.71848">
        <ele>385.63</ele>
        <time>2018-03-29T12:32:44Z</time>
      </trkpt>
      <trkpt lat="48.31405" lon="6.71853">
        <ele>385.63</ele>
        <time>2018-03-29T12:32:55Z</time>
      </trkpt>
      <trkpt lat="48.31396" lon="6.71847">
        <ele>384.18</ele>
        <time>2018-03-29T12:33:06Z</time>
      </trkpt>
      <trkpt lat="48.31388" lon="6.7184">
        <ele>383.7</ele>
        <time>2018-03-29T12:33:17Z</time>
      </trkpt>
      <trkpt lat="48.31381" lon="6.71825">
        <ele>382.74</ele>
        <time>2018-03-29T12:33:34Z</time>
      </trkpt>
      <trkpt lat="48.31376" lon="6.71804">
        <ele>379.86</ele>
        <time>2018-03-29T12:33:45Z</time>
      </trkpt>
      <trkpt lat="48.31368" lon="6.71767">
        <ele>376.97</ele>
        <time>2018-03-29T12:34:05Z</time>
      </trkpt>
      <trkpt lat="48.31362" lon="6.71728">
        <ele>374.57</ele>
        <time>2018-03-29T12:34:26Z</time>
      </trkpt>
      <trkpt lat="48.31357" lon="6.71706">
        <ele>372.65</ele>
        <time>2018-03-29T12:34:36Z</time>
      </trkpt>
      <trkpt lat="48.31357" lon="6.71698">
        <ele>372.17</ele>
        <time>2018-03-29T12:34:40Z</time>
      </trkpt>
      <trkpt lat="48.31347" lon="6.71659">
        <ele>369.28</ele>
        <time>2018-03-29T12:35:01Z</time>
      </trkpt>
      <trkpt lat="48.31336" lon="6.71628">
        <ele>367.36</ele>
        <time>2018-03-29T12:35:18Z</time>
      </trkpt>
      <trkpt lat="48.31322" lon="6.71606">
        <ele>365.44</ele>
        <time>2018-03-29T12:35:34Z</time>
      </trkpt>
      <trkpt lat="48.313" lon="6.71602">
        <ele>364</ele>
        <time>2018-03-29T12:35:50Z</time>
      </trkpt>
      <trkpt lat="48.31281" lon="6.71602">
        <ele>362.07</ele>
        <time>2018-03-29T12:36:05Z</time>
      </trkpt>
      <trkpt lat="48.31263" lon="6.71583">
        <ele>360.15</ele>
        <time>2018-03-29T12:36:22Z</time>
      </trkpt>
      <trkpt lat="48.31261" lon="6.71576">
        <ele>361.11</ele>
        <time>2018-03-29T12:36:29Z</time>
      </trkpt>
      <trkpt lat="48.31253" lon="6.71556">
        <ele>361.59</ele>
        <time>2018-03-29T12:36:41Z</time>
      </trkpt>
      <trkpt lat="48.31247" lon="6.71546">
        <ele>360.15</ele>
        <time>2018-03-29T12:36:48Z</time>
      </trkpt>
      <trkpt lat="48.31234" lon="6.7152">
        <ele>358.71</ele>
        <time>2018-03-29T12:37:03Z</time>
      </trkpt>
      <trkpt lat="48.31237" lon="6.71479">
        <ele>356.31</ele>
        <time>2018-03-29T12:37:24Z</time>
      </trkpt>
      <trkpt lat="48.31245" lon="6.71439">
        <ele>353.9</ele>
        <time>2018-03-29T12:37:43Z</time>
      </trkpt>
      <trkpt lat="48.31239" lon="6.71412">
        <ele>352.46</ele>
        <time>2018-03-29T12:37:58Z</time>
      </trkpt>
      <trkpt lat="48.31215" lon="6.71383">
        <ele>351.5</ele>
        <time>2018-03-29T12:38:21Z</time>
      </trkpt>
      <trkpt lat="48.31192" lon="6.71365">
        <ele>351.02</ele>
        <time>2018-03-29T12:38:40Z</time>
      </trkpt>
      <trkpt lat="48.31177" lon="6.71361">
        <ele>351.02</ele>
        <time>2018-03-29T12:38:51Z</time>
      </trkpt>
      <trkpt lat="48.31153" lon="6.71361">
        <ele>349.58</ele>
        <time>2018-03-29T12:39:08Z</time>
      </trkpt>
      <trkpt lat="48.31135" lon="6.71349">
        <ele>348.13</ele>
        <time>2018-03-29T12:39:23Z</time>
      </trkpt>
      <trkpt lat="48.31119" lon="6.71328">
        <ele>346.21</ele>
        <time>2018-03-29T12:39:39Z</time>
      </trkpt>
      <trkpt lat="48.31106" lon="6.71313">
        <ele>346.21</ele>
        <time>2018-03-29T12:39:53Z</time>
      </trkpt>
      <trkpt lat="48.31091" lon="6.71303">
        <ele>343.81</ele>
        <time>2018-03-29T12:40:07Z</time>
      </trkpt>
      <trkpt lat="48.31077" lon="6.71288">
        <ele>341.41</ele>
        <time>2018-03-29T12:40:19Z</time>
      </trkpt>
      <trkpt lat="48.31065" lon="6.71292">
        <ele>341.41</ele>
        <time>2018-03-29T12:40:30Z</time>
      </trkpt>
      <trkpt lat="48.31034" lon="6.71283">
        <ele>340.44</ele>
        <time>2018-03-29T12:40:54Z</time>
      </trkpt>
      <trkpt lat="48.31027" lon="6.71296">
        <ele>340.92</ele>
        <time>2018-03-29T12:41:09Z</time>
      </trkpt>
      <trkpt lat="48.31027" lon="6.71297">
        <ele>341.89</ele>
        <time>2018-03-29T12:41:25Z</time>
      </trkpt>
      <trkpt lat="48.31028" lon="6.71298">
        <ele>341.89</ele>
        <time>2018-03-29T12:41:51Z</time>
      </trkpt>
    </trkseg>
  </trk>
</gpx>